Observation data for Lake Alan Henry on 08/20/2019      Previous  Date       Current Mesonet Observations  Soil Data  Daily Summary Page  Observations in Plain Language
KAHS 200500Z 14005KT 31/18 A3001 RMK A01 T03080175  RH  045%=      5-min Rain = 0
KAHS 200501Z 15005KT 31/18 A3001 RMK A01 T03080175  RH  045%=      5-min Rain = 0
KAHS 200502Z 15005KT 31/18 A3001 RMK A01 T03070175  RH  045%=      5-min Rain = 0
KAHS 200503Z 15005KT 31/18 A3001 RMK A01 T03070176  RH  045%=      5-min Rain = 0
KAHS 200504Z 15005KT 31/18 A3001 RMK A01 T03070176  RH  046%=      5-min Rain = 0
KAHS 200505Z 15005KT 31/18 A3001 RMK A01 T03060176  RH  046%=      5-min Rain = 0
KAHS 200506Z 15005KT 31/18 A3001 RMK A01 T03060176  RH  046%=      5-min Rain = 0
KAHS 200507Z 15005KT 31/18 A3001 RMK A01 T03060176  RH  046%=      5-min Rain = 0
KAHS 200508Z 15006KT 31/18 A3001 RMK A01 T03060176  RH  046%=      5-min Rain = 0
KAHS 200509Z 14006KT 31/18 A3001 RMK A01 T03050176  RH  046%=      5-min Rain = 0
KAHS 200510Z 15005KT 31/18 A3001 RMK A01 T03050176  RH  046%=      5-min Rain = 0
KAHS 200511Z 14005KT 31/18 A3001 RMK A01 T03060175  RH  046%=      5-min Rain = 0
KAHS 200512Z 14005KT 31/18 A3001 RMK A01 T03060175  RH  045%=      5-min Rain = 0
KAHS 200513Z 14005KT 31/17 A3001 RMK A01 T03060174  RH  045%=      5-min Rain = 0
KAHS 200514Z 14006KT 31/17 A3001 RMK A01 T03070173  RH  045%=      5-min Rain = 0
KAHS 200515Z 14007KT 31/17 A3001 RMK A01 T03070172  RH  044%=      5-min Rain = 0
KAHS 200516Z 14007KT 31/17 A3001 RMK A01 T03080172  RH  044%=      5-min Rain = 0
KAHS 200517Z 14007KT 31/17 A3001 RMK A01 T03080172  RH  044%=      5-min Rain = 0
KAHS 200518Z 14007KT 31/17 A3001 RMK A01 T03080172  RH  044%=      5-min Rain = 0
KAHS 200519Z 14007KT 31/17 A3001 RMK A01 T03080172  RH  044%=      5-min Rain = 0
KAHS 200520Z 15006KT 31/17 A3001 RMK A01 T03090172  RH  044%=      5-min Rain = 0
KAHS 200521Z 15006KT 31/17 A3001 RMK A01 T03080172  RH  044%=      5-min Rain = 0
KAHS 200522Z 15007KT 31/17 A3001 RMK A01 T03090172  RH  044%=      5-min Rain = 0
KAHS 200523Z 14005KT 31/17 A3001 RMK A01 T03090172  RH  044%=      5-min Rain = 0
KAHS 200524Z 15007KT 31/17 A3001 RMK A01 T03090172  RH  044%=      5-min Rain = 0
KAHS 200525Z 15006KT 31/17 A3002 RMK A01 T03090173  RH  044%=      5-min Rain = 0
KAHS 200526Z 15006KT 31/17 A3002 RMK A01 T03080173  RH  044%=      5-min Rain = 0
KAHS 200527Z 15005KT 31/17 A3002 RMK A01 T03080174  RH  045%=      5-min Rain = 0
KAHS 200528Z 14006KT 31/17 A3002 RMK A01 T03080174  RH  045%=      5-min Rain = 0
KAHS 200529Z 15006KT 31/17 A3002 RMK A01 T03080174  RH  045%=      5-min Rain = 0
KAHS 200530Z 15006KT 31/18 A3002 RMK A01 T03080175  RH  045%=      5-min Rain = 0
KAHS 200531Z 14006KT 31/18 A3002 RMK A01 T03070176  RH  045%=      5-min Rain = 0
KAHS 200532Z 15006KT 31/18 A3002 RMK A01 T03070175  RH  045%=      5-min Rain = 0
KAHS 200533Z 14007KT 31/17 A3002 RMK A01 T03070173  RH  045%=      5-min Rain = 0
KAHS 200534Z 15005KT 31/17 A3002 RMK A01 T03080173  RH  044%=      5-min Rain = 0
KAHS 200535Z 15007KT 31/17 A3001 RMK A01 T03070172  RH  044%=      5-min Rain = 0
KAHS 200536Z 15007KT 31/17 A3001 RMK A01 T03070171  RH  044%=      5-min Rain = 0
KAHS 200537Z 15006KT 31/17 A3001 RMK A01 T03080171  RH  044%=      5-min Rain = 0
KAHS 200538Z 15007KT 31/17 A3001 RMK A01 T03070172  RH  044%=      5-min Rain = 0
KAHS 200539Z 14006KT 31/17 A3001 RMK A01 T03060173  RH  045%=      5-min Rain = 0
KAHS 200540Z 15008KT 31/17 A3001 RMK A01 T03060172  RH  045%=      5-min Rain = 0
KAHS 200541Z 15006KT 31/17 A3001 RMK A01 T03060172  RH  044%=      5-min Rain = 0
KAHS 200542Z 15007KT 31/17 A3001 RMK A01 T03060172  RH  045%=      5-min Rain = 0
KAHS 200543Z 15009KT 31/17 A3001 RMK A01 T03060172  RH  045%=      5-min Rain = 0
KAHS 200544Z 14007KT 31/17 A3001 RMK A01 T03070171  RH  044%=      5-min Rain = 0
KAHS 200545Z 15007KT 31/17 A3001 RMK A01 T03070172  RH  044%=      5-min Rain = 0
KAHS 200546Z 14007KT 31/17 A3001 RMK A01 T03070172  RH  044%=      5-min Rain = 0
KAHS 200547Z 15007KT 31/17 A3001 RMK A01 T03070172  RH  044%=      5-min Rain = 0
KAHS 200548Z 14006KT 31/17 A3001 RMK A01 T03060172  RH  045%=      5-min Rain = 0
KAHS 200549Z 15006KT 31/17 A3002 RMK A01 T03060172  RH  045%=      5-min Rain = 0
KAHS 200550Z 14005KT 31/17 A3002 RMK A01 T03050172  RH  045%=      5-min Rain = 0
KAHS 200551Z 15008KT 31/17 A3002 RMK A01 T03050172  RH  045%=      5-min Rain = 0
KAHS 200552Z 14007KT 31/17 A3002 RMK A01 T03060171  RH  044%=      5-min Rain = 0
KAHS 200553Z 14008KT 31/17 A3002 RMK A01 T03070172  RH  044%=      5-min Rain = 0
KAHS 200554Z 14008KT 31/17 A3002 RMK A01 T03070171  RH  044%=      5-min Rain = 0
KAHS 200555Z 14006KT 31/17 A3002 RMK A01 T03070172  RH  044%=      5-min Rain = 0
KAHS 200556Z 15007KT 31/17 A3002 RMK A01 T03060172  RH  045%=      5-min Rain = 0
KAHS 200557Z 14006KT 31/17 A3002 RMK A01 T03060173  RH  045%=      5-min Rain = 0
KAHS 200558Z 14006KT 31/17 A3002 RMK A01 T03050173  RH  045%=      5-min Rain = 0
KAHS 200559Z 14007KT 30/17 A3002 RMK A01 T03040173  RH  045%=      5-min Rain = 0
KAHS 200600Z 14007KT 31/17 A3002 RMK A01 T03050173  RH  045%=      5-min Rain = 0
KAHS 200601Z 15007KT 30/17 A3002 RMK A01 T03040173  RH  045%=      5-min Rain = 0
KAHS 200602Z 15006KT 30/17 A3002 RMK A01 T03040173  RH  045%=      5-min Rain = 0
KAHS 200603Z 14007KT 30/17 A3002 RMK A01 T03040173  RH  046%=      5-min Rain = 0
KAHS 200604Z 14006KT 30/17 A3002 RMK A01 T03040173  RH  046%=      5-min Rain = 0
KAHS 200605Z 14007KT 30/17 A3002 RMK A01 T03030173  RH  046%=      5-min Rain = 0
KAHS 200606Z 14007KT 30/17 A3002 RMK A01 T03030173  RH  046%=      5-min Rain = 0
KAHS 200607Z 14006KT 30/17 A3002 RMK A01 T03040173  RH  046%=      5-min Rain = 0
KAHS 200608Z 14007KT 30/17 A3002 RMK A01 T03040174  RH  046%=      5-min Rain = 0
KAHS 200609Z 14006KT 30/17 A3002 RMK A01 T03030174  RH  046%=      5-min Rain = 0
KAHS 200610Z 14006KT 30/18 A3002 RMK A01 T03030175  RH  046%=      5-min Rain = 0
KAHS 200611Z 14008KT 30/17 A3002 RMK A01 T03030174  RH  046%=      5-min Rain = 0
KAHS 200612Z 14007KT 30/17 A3002 RMK A01 T03030174  RH  046%=      5-min Rain = 0
KAHS 200613Z 15006KT 30/18 A3002 RMK A01 T03030175  RH  046%=      5-min Rain = 0
KAHS 200614Z 14007KT 30/17 A3002 RMK A01 T03020174  RH  046%=      5-min Rain = 0
KAHS 200615Z 14008KT 30/17 A3002 RMK A01 T03030173  RH  046%=      5-min Rain = 0
KAHS 200616Z 15007KT 30/17 A3002 RMK A01 T03030173  RH  046%=      5-min Rain = 0
KAHS 200617Z 15007KT 30/17 A3002 RMK A01 T03030174  RH  046%=      5-min Rain = 0
KAHS 200618Z 14008KT 30/17 A3002 RMK A01 T03020174  RH  046%=      5-min Rain = 0
KAHS 200619Z 15007KT 30/17 A3002 RMK A01 T03020173  RH  046%=      5-min Rain = 0
KAHS 200620Z 14006KT 30/17 A3002 RMK A01 T03020173  RH  046%=      5-min Rain = 0
KAHS 200621Z 14007KT 30/17 A3002 RMK A01 T03020173  RH  046%=      5-min Rain = 0
KAHS 200622Z 14007KT 30/17 A3002 RMK A01 T03010173  RH  046%=      5-min Rain = 0
KAHS 200623Z 15008KT 30/17 A3002 RMK A01 T03010173  RH  046%=      5-min Rain = 0
KAHS 200624Z 15008KT 30/17 A3002 RMK A01 T03020172  RH  046%=      5-min Rain = 0
KAHS 200625Z 14008KT 30/17 A3002 RMK A01 T03020171  RH  046%=      5-min Rain = 0
KAHS 200626Z 14007KT 30/17 A3002 RMK A01 T03020171  RH  045%=      5-min Rain = 0
KAHS 200627Z 14006KT 30/17 A3002 RMK A01 T03020171  RH  046%=      5-min Rain = 0
KAHS 200628Z 14007KT 30/17 A3002 RMK A01 T03010172  RH  046%=      5-min Rain = 0
KAHS 200629Z 14006KT 30/17 A3002 RMK A01 T03010172  RH  046%=      5-min Rain = 0
KAHS 200630Z 14007KT 30/17 A3002 RMK A01 T03000172  RH  046%=      5-min Rain = 0
KAHS 200631Z 14008KT 30/17 A3002 RMK A01 T03000171  RH  046%=      5-min Rain = 0
KAHS 200632Z 14007KT 30/17 A3002 RMK A01 T03000171  RH  046%=      5-min Rain = 0
KAHS 200633Z 14006KT 30/17 A3002 RMK A01 T03000171  RH  046%=      5-min Rain = 0
KAHS 200634Z 14006KT 30/17 A3002 RMK A01 T02990172  RH  046%=      5-min Rain = 0
KAHS 200635Z 14009KT 30/17 A3002 RMK A01 T02990171  RH  046%=      5-min Rain = 0
KAHS 200636Z 14008KT 30/17 A3002 RMK A01 T02990171  RH  046%=      5-min Rain = 0
KAHS 200637Z 14007KT 30/17 A3002 RMK A01 T02990171  RH  046%=      5-min Rain = 0
KAHS 200638Z 14007KT 30/17 A3002 RMK A01 T02990172  RH  046%=      5-min Rain = 0
KAHS 200639Z 15006KT 30/17 A3002 RMK A01 T02980172  RH  047%=      5-min Rain = 0
KAHS 200640Z 14006KT 30/17 A3002 RMK A01 T02980173  RH  047%=      5-min Rain = 0
KAHS 200641Z 15007KT 30/17 A3002 RMK A01 T02970173  RH  047%=      5-min Rain = 0
KAHS 200642Z 15006KT 30/17 A3002 RMK A01 T02970174  RH  047%=      5-min Rain = 0
KAHS 200643Z 15007KT 30/17 A3002 RMK A01 T02970174  RH  048%=      5-min Rain = 0
KAHS 200644Z 14007KT 30/17 A3002 RMK A01 T02970173  RH  047%=      5-min Rain = 0
KAHS 200645Z 15007KT 30/17 A3002 RMK A01 T02970174  RH  047%=      5-min Rain = 0
KAHS 200646Z 15007KT 30/17 A3002 RMK A01 T02970174  RH  048%=      5-min Rain = 0
KAHS 200647Z 15008KT 30/17 A3002 RMK A01 T02970174  RH  047%=      5-min Rain = 0
KAHS 200648Z 15007KT 30/17 A3002 RMK A01 T02980174  RH  048%=      5-min Rain = 0
KAHS 200649Z 15005KT 30/18 A3002 RMK A01 T02970175  RH  048%=      5-min Rain = 0
KAHS 200650Z 15005KT 30/18 A3002 RMK A01 T02970175  RH  048%=      5-min Rain = 0
KAHS 200651Z 16006KT 30/18 A3002 RMK A01 T02960175  RH  048%=      5-min Rain = 0
KAHS 200652Z 16006KT 30/18 A3002 RMK A01 T02960176  RH  048%=      5-min Rain = 0
KAHS 200653Z 16006KT 30/18 A3002 RMK A01 T02960175  RH  048%=      5-min Rain = 0
KAHS 200654Z 16006KT 30/18 A3002 RMK A01 T02960175  RH  048%=      5-min Rain = 0
KAHS 200655Z 15007KT 30/17 A3002 RMK A01 T02960174  RH  048%=      5-min Rain = 0
KAHS 200656Z 16008KT 30/17 A3002 RMK A01 T02970172  RH  047%=      5-min Rain = 0
KAHS 200657Z 16008KT 30/17 A3002 RMK A01 T02980171  RH  046%=      5-min Rain = 0
KAHS 200658Z 17008KT 30/17 A3002 RMK A01 T02990169  RH  046%=      5-min Rain = 0
KAHS 200659Z 15007KT 30/17 A3002 RMK A01 T02990169  RH  046%=      5-min Rain = 0
KAHS 200700Z 16008KT 30/17 A3002 RMK A01 T03000169  RH  046%=      5-min Rain = 0
KAHS 200701Z 16009KT 30/17 A3002 RMK A01 T03000169  RH  045%=      5-min Rain = 0
KAHS 200702Z 16008KT 30/17 A3002 RMK A01 T03010168  RH  045%=      5-min Rain = 0
KAHS 200703Z 15008KT 30/17 A3002 RMK A01 T03010168  RH  045%=      5-min Rain = 0
KAHS 200704Z 16009KT 30/17 A3002 RMK A01 T03020167  RH  044%=      5-min Rain = 0
KAHS 200705Z 16010KT 30/17 A3002 RMK A01 T03030167  RH  044%=      5-min Rain = 0
KAHS 200706Z 17010KT 30/17 A3002 RMK A01 T03030167  RH  044%=      5-min Rain = 0
KAHS 200707Z 16007KT 30/17 A3002 RMK A01 T03030167  RH  044%=      5-min Rain = 0
KAHS 200708Z 17010KT 30/17 A3002 RMK A01 T03030167  RH  044%=      5-min Rain = 0
KAHS 200709Z 16010KT 30/17 A3002 RMK A01 T03030167  RH  044%=      5-min Rain = 0
KAHS 200710Z 16010G15KT 30/17 A3002 RMK A01 T03030167  RH  044%=      5-min Rain = 0
KAHS 200711Z 16010KT 30/17 A3002 RMK A01 T03030166  RH  044%=      5-min Rain = 0
KAHS 200712Z 17011KT 30/17 A3002 RMK A01 T03030167  RH  044%=      5-min Rain = 0
KAHS 200713Z 16013KT 30/17 A3002 RMK A01 T03030166  RH  044%=      5-min Rain = 0
KAHS 200714Z 17011KT 30/17 A3002 RMK A01 T03030166  RH  044%=      5-min Rain = 0
KAHS 200715Z 17010KT 30/17 A3002 RMK A01 T03040166  RH  044%=      5-min Rain = 0
KAHS 200716Z 16010G15KT 30/17 A3002 RMK A01 T03030166  RH  044%=      5-min Rain = 0
KAHS 200717Z 16009KT 30/17 A3002 RMK A01 T03030166  RH  044%=      5-min Rain = 0
KAHS 200718Z 17010KT 30/17 A3002 RMK A01 T03020166  RH  044%=      5-min Rain = 0
KAHS 200719Z 17010KT 30/17 A3002 RMK A01 T03020166  RH  044%=      5-min Rain = 0
KAHS 200720Z 17011KT 30/17 A3002 RMK A01 T03020167  RH  044%=      5-min Rain = 0
KAHS 200721Z 16009KT 30/17 A3002 RMK A01 T03020166  RH  044%=      5-min Rain = 0
KAHS 200722Z 17009KT 30/17 A3002 RMK A01 T03010166  RH  044%=      5-min Rain = 0
KAHS 200723Z 17010KT 30/17 A3002 RMK A01 T03000166  RH  044%=      5-min Rain = 0
KAHS 200724Z 17007KT 30/17 A3002 RMK A01 T03000166  RH  044%=      5-min Rain = 0
KAHS 200725Z 17009G14KT 30/17 A3002 RMK A01 T02990166  RH  045%=      5-min Rain = 0
KAHS 200726Z 17009KT 30/17 A3002 RMK A01 T02990166  RH  045%=      5-min Rain = 0
KAHS 200727Z 17008KT 30/17 A3002 RMK A01 T02990166  RH  045%=      5-min Rain = 0
KAHS 200728Z 17012KT 30/17 A3002 RMK A01 T02980166  RH  045%=      5-min Rain = 0
KAHS 200729Z 17009KT 30/17 A3002 RMK A01 T02990166  RH  045%=      5-min Rain = 0
KAHS 200730Z 17008KT 30/17 A3002 RMK A01 T02980166  RH  045%=      5-min Rain = 0
KAHS 200731Z 17008KT 30/17 A3002 RMK A01 T02970166  RH  045%=      5-min Rain = 0
KAHS 200732Z 17010KT 30/17 A3002 RMK A01 T02970166  RH  045%=      5-min Rain = 0
KAHS 200733Z 17009KT 30/17 A3002 RMK A01 T02970166  RH  045%=      5-min Rain = 0
KAHS 200734Z 18008G13KT 30/17 A3002 RMK A01 T02970166  RH  045%=      5-min Rain = 0
KAHS 200735Z 18010KT 30/17 A3002 RMK A01 T02970166  RH  045%=      5-min Rain = 0
KAHS 200736Z 18009KT 30/17 A3002 RMK A01 T02970166  RH  045%=      5-min Rain = 0
KAHS 200737Z 17010KT 30/17 A3002 RMK A01 T02960166  RH  045%=      5-min Rain = 0
KAHS 200738Z 18007KT 30/17 A3002 RMK A01 T02960166  RH  045%=      5-min Rain = 0
KAHS 200739Z 18008KT 30/17 A3002 RMK A01 T02960166  RH  046%=      5-min Rain = 0
KAHS 200740Z 18008KT 30/17 A3002 RMK A01 T02960166  RH  046%=      5-min Rain = 0
KAHS 200741Z 18009KT 30/17 A3002 RMK A01 T02950166  RH  046%=      5-min Rain = 0
KAHS 200742Z 18009KT 30/17 A3002 RMK A01 T02950166  RH  046%=      5-min Rain = 0
KAHS 200743Z 18010KT 30/17 A3002 RMK A01 T02950165  RH  046%=      5-min Rain = 0
KAHS 200744Z 17010KT 30/17 A3002 RMK A01 T02950165  RH  045%=      5-min Rain = 0
KAHS 200745Z 18008KT 30/17 A3002 RMK A01 T02960166  RH  045%=      5-min Rain = 0
KAHS 200746Z 18010KT 30/17 A3002 RMK A01 T02950165  RH  046%=      5-min Rain = 0
KAHS 200747Z 17009KT 30/17 A3002 RMK A01 T02950166  RH  046%=      5-min Rain = 0
KAHS 200748Z 18007KT 30/17 A3003 RMK A01 T02950166  RH  046%=      5-min Rain = 0
KAHS 200749Z 18009KT 29/17 A3003 RMK A01 T02940166  RH  046%=      5-min Rain = 0
KAHS 200750Z 18011KT 29/17 A3003 RMK A01 T02940166  RH  046%=      5-min Rain = 0
KAHS 200751Z 18009KT 29/17 A3003 RMK A01 T02940165  RH  046%=      5-min Rain = 0
KAHS 200752Z 18008KT 29/17 A3003 RMK A01 T02940166  RH  046%=      5-min Rain = 0
KAHS 200753Z 17010KT 29/17 A3003 RMK A01 T02930166  RH  046%=      5-min Rain = 0
KAHS 200754Z 18011KT 29/17 A3003 RMK A01 T02930165  RH  046%=      5-min Rain = 0
KAHS 200755Z 18011KT 29/17 A3003 RMK A01 T02940166  RH  046%=      5-min Rain = 0
KAHS 200756Z 17010KT 29/17 A3003 RMK A01 T02940166  RH  046%=      5-min Rain = 0
KAHS 200757Z 17008KT 29/17 A3003 RMK A01 T02930166  RH  046%=      5-min Rain = 0
KAHS 200758Z 18009KT 29/17 A3003 RMK A01 T02930166  RH  046%=      5-min Rain = 0
KAHS 200759Z 18011G16KT 29/17 A3003 RMK A01 T02930166  RH  046%=      5-min Rain = 0
KAHS 200800Z 18009KT 29/17 A3003 RMK A01 T02920166  RH  046%=      5-min Rain = 0
KAHS 200801Z 17010KT 29/17 A3003 RMK A01 T02920166  RH  047%=      5-min Rain = 0
KAHS 200802Z 18011KT 29/17 A3003 RMK A01 T02920165  RH  046%=      5-min Rain = 0
KAHS 200803Z 18009KT 29/17 A3003 RMK A01 T02920166  RH  046%=      5-min Rain = 0
KAHS 200804Z 18009KT 29/17 A3003 RMK A01 T02920166  RH  047%=      5-min Rain = 0
KAHS 200805Z 18007KT 29/17 A3003 RMK A01 T02910167  RH  047%=      5-min Rain = 0
KAHS 200806Z 18009KT 29/17 A3003 RMK A01 T02900167  RH  047%=      5-min Rain = 0
KAHS 200807Z 18008KT 29/17 A3003 RMK A01 T02900166  RH  047%=      5-min Rain = 0
KAHS 200808Z 18009KT 29/17 A3002 RMK A01 T02910166  RH  047%=      5-min Rain = 0
KAHS 200809Z 18009KT 29/17 A3003 RMK A01 T02910167  RH  047%=      5-min Rain = 0
KAHS 200810Z 18008KT 29/17 A3003 RMK A01 T02900167  RH  047%=      5-min Rain = 0
KAHS 200811Z 18008KT 29/17 A3003 RMK A01 T02890167  RH  048%=      5-min Rain = 0
KAHS 200812Z 18009KT 29/17 A3003 RMK A01 T02890167  RH  048%=      5-min Rain = 0
KAHS 200813Z 18009KT 29/17 A3003 RMK A01 T02890167  RH  048%=      5-min Rain = 0
KAHS 200814Z 18008KT 29/17 A3003 RMK A01 T02880167  RH  048%=      5-min Rain = 0
KAHS 200815Z 19007KT 29/17 A3003 RMK A01 T02880168  RH  048%=      5-min Rain = 0
KAHS 200816Z 18006KT 29/17 A3003 RMK A01 T02870168  RH  048%=      5-min Rain = 0
KAHS 200817Z 18009KT 29/17 A3003 RMK A01 T02870168  RH  048%=      5-min Rain = 0
KAHS 200818Z 19006KT 29/17 A3003 RMK A01 T02870168  RH  048%=      5-min Rain = 0
KAHS 200819Z 19007KT 29/17 A3003 RMK A01 T02870168  RH  049%=      5-min Rain = 0
KAHS 200820Z 20006KT 29/17 A3003 RMK A01 T02870169  RH  049%=      5-min Rain = 0
KAHS 200821Z 18008KT 29/17 A3003 RMK A01 T02860169  RH  049%=      5-min Rain = 0
KAHS 200822Z 19008KT 29/17 A3003 RMK A01 T02860169  RH  049%=      5-min Rain = 0
KAHS 200823Z 19009KT 29/17 A3003 RMK A01 T02860169  RH  049%=      5-min Rain = 0
KAHS 200824Z 19008KT 29/17 A3003 RMK A01 T02870169  RH  049%=      5-min Rain = 0
KAHS 200825Z 20007KT 29/17 A3003 RMK A01 T02860169  RH  049%=      5-min Rain = 0
KAHS 200826Z 19010KT 29/17 A3003 RMK A01 T02860169  RH  049%=      5-min Rain = 0
KAHS 200827Z 19008KT 29/17 A3003 RMK A01 T02860168  RH  049%=      5-min Rain = 0
KAHS 200828Z 19009KT 29/17 A3003 RMK A01 T02860169  RH  049%=      5-min Rain = 0
KAHS 200829Z 19008KT 29/17 A3003 RMK A01 T02860169  RH  049%=      5-min Rain = 0
KAHS 200830Z 19009KT 29/17 A3003 RMK A01 T02860168  RH  049%=      5-min Rain = 0
KAHS 200831Z 19008KT 29/17 A3003 RMK A01 T02860168  RH  049%=      5-min Rain = 0
KAHS 200832Z 19009KT 29/17 A3003 RMK A01 T02850168  RH  049%=      5-min Rain = 0
KAHS 200833Z 19007KT 29/17 A3003 RMK A01 T02850168  RH  049%=      5-min Rain = 0
KAHS 200834Z 19008KT 28/17 A3003 RMK A01 T02840169  RH  050%=      5-min Rain = 0
KAHS 200835Z 19009KT 28/17 A3003 RMK A01 T02840169  RH  050%=      5-min Rain = 0
KAHS 200836Z 19008KT 28/17 A3003 RMK A01 T02840169  RH  050%=      5-min Rain = 0
KAHS 200837Z 18009KT 28/17 A3003 RMK A01 T02830168  RH  050%=      5-min Rain = 0
KAHS 200838Z 18009KT 28/17 A3003 RMK A01 T02830169  RH  050%=      5-min Rain = 0
KAHS 200839Z 19008KT 28/17 A3003 RMK A01 T02840169  RH  050%=      5-min Rain = 0
KAHS 200840Z 19009KT 28/17 A3003 RMK A01 T02840169  RH  050%=      5-min Rain = 0
KAHS 200841Z 19006KT 28/17 A3003 RMK A01 T02840169  RH  050%=      5-min Rain = 0
KAHS 200842Z 19008KT 28/17 A3003 RMK A01 T02830170  RH  050%=      5-min Rain = 0
KAHS 200843Z 19008KT 28/17 A3003 RMK A01 T02830169  RH  050%=      5-min Rain = 0
KAHS 200844Z 19008KT 28/17 A3003 RMK A01 T02820169  RH  050%=      5-min Rain = 0
KAHS 200845Z 19009KT 28/17 A3003 RMK A01 T02820169  RH  050%=      5-min Rain = 0
KAHS 200846Z 18007KT 28/17 A3003 RMK A01 T02820169  RH  050%=      5-min Rain = 0
KAHS 200847Z 18009KT 28/17 A3003 RMK A01 T02820169  RH  050%=      5-min Rain = 0
KAHS 200848Z 19009KT 28/17 A3003 RMK A01 T02820169  RH  050%=      5-min Rain = 0
KAHS 200849Z 19007KT 28/17 A3003 RMK A01 T02810168  RH  050%=      5-min Rain = 0
KAHS 200850Z 18006KT 28/17 A3003 RMK A01 T02810168  RH  050%=      5-min Rain = 0
KAHS 200851Z 19007KT 28/17 A3003 RMK A01 T02800168  RH  051%=      5-min Rain = 0
KAHS 200852Z 19007KT 28/17 A3003 RMK A01 T02800168  RH  051%=      5-min Rain = 0
KAHS 200853Z 19006KT 28/17 A3003 RMK A01 T02800168  RH  051%=      5-min Rain = 0
KAHS 200854Z 19006KT 28/17 A3003 RMK A01 T02790168  RH  051%=      5-min Rain = 0
KAHS 200855Z 19006KT 28/17 A3003 RMK A01 T02780168  RH  051%=      5-min Rain = 0
KAHS 200856Z 19006KT 28/17 A3003 RMK A01 T02780167  RH  051%=      5-min Rain = 0
KAHS 200857Z 20005KT 28/17 A3003 RMK A01 T02780167  RH  051%=      5-min Rain = 0
KAHS 200858Z 20006KT 28/17 A3003 RMK A01 T02770167  RH  051%=      5-min Rain = 0
KAHS 200859Z 20005KT 28/17 A3003 RMK A01 T02770167  RH  051%=      5-min Rain = 0
KAHS 200900Z 20005KT 28/17 A3003 RMK A01 T02770167  RH  051%=      5-min Rain = 0
KAHS 200901Z 20006KT 28/17 A3003 RMK A01 T02760167  RH  051%=      5-min Rain = 0
KAHS 200902Z 19005KT 28/17 A3003 RMK A01 T02750167  RH  051%=      5-min Rain = 0
KAHS 200903Z 19005KT 28/17 A3003 RMK A01 T02750167  RH  052%=      5-min Rain = 0
KAHS 200904Z 19006KT 28/17 A3003 RMK A01 T02750167  RH  052%=      5-min Rain = 0
KAHS 200905Z 20007KT 28/17 A3003 RMK A01 T02750167  RH  052%=      5-min Rain = 0
KAHS 200906Z 19007KT 28/17 A3003 RMK A01 T02750166  RH  051%=      5-min Rain = 0
KAHS 200907Z 19006KT 28/17 A3003 RMK A01 T02750167  RH  052%=      5-min Rain = 0
KAHS 200908Z 19006KT 28/17 A3003 RMK A01 T02750167  RH  052%=      5-min Rain = 0
KAHS 200909Z 19006KT 28/17 A3003 RMK A01 T02750167  RH  052%=      5-min Rain = 0
KAHS 200910Z 19006KT 28/17 A3003 RMK A01 T02750167  RH  052%=      5-min Rain = 0
KAHS 200911Z 19006KT 28/17 A3003 RMK A01 T02750167  RH  052%=      5-min Rain = 0
KAHS 200912Z 19006KT 28/17 A3003 RMK A01 T02750166  RH  052%=      5-min Rain = 0
KAHS 200913Z 19006KT 28/17 A3003 RMK A01 T02750166  RH  051%=      5-min Rain = 0
KAHS 200914Z 19006KT 28/17 A3003 RMK A01 T02750166  RH  052%=      5-min Rain = 0
KAHS 200915Z 19005KT 28/17 A3003 RMK A01 T02750167  RH  052%=      5-min Rain = 0
KAHS 200916Z 19006KT 27/17 A3003 RMK A01 T02740167  RH  052%=      5-min Rain = 0
KAHS 200917Z 19006KT 27/17 A3003 RMK A01 T02740167  RH  052%=      5-min Rain = 0
KAHS 200918Z 19005KT 27/17 A3003 RMK A01 T02740167  RH  052%=      5-min Rain = 0
KAHS 200919Z 20006KT 27/17 A3003 RMK A01 T02730167  RH  052%=      5-min Rain = 0
KAHS 200920Z 20006KT 27/17 A3003 RMK A01 T02740167  RH  052%=      5-min Rain = 0
KAHS 200921Z 20005KT 27/17 A3003 RMK A01 T02740167  RH  052%=      5-min Rain = 0
KAHS 200922Z 19005KT 27/17 A3003 RMK A01 T02730167  RH  052%=      5-min Rain = 0
KAHS 200923Z 20007KT 27/17 A3003 RMK A01 T02730167  RH  052%=      5-min Rain = 0
KAHS 200924Z 20007KT 27/17 A3003 RMK A01 T02740167  RH  052%=      5-min Rain = 0
KAHS 200925Z 20006KT 27/17 A3003 RMK A01 T02740167  RH  052%=      5-min Rain = 0
KAHS 200926Z 20006KT 27/17 A3003 RMK A01 T02740167  RH  052%=      5-min Rain = 0
KAHS 200927Z 19006KT 27/17 A3003 RMK A01 T02730167  RH  052%=      5-min Rain = 0
KAHS 200928Z 19006KT 27/17 A3003 RMK A01 T02740167  RH  052%=      5-min Rain = 0
KAHS 200929Z 19007KT 27/17 A3003 RMK A01 T02730167  RH  052%=      5-min Rain = 0
KAHS 200930Z 19006KT 27/17 A3003 RMK A01 T02730167  RH  052%=      5-min Rain = 0
KAHS 200931Z 19007KT 27/17 A3003 RMK A01 T02720167  RH  052%=      5-min Rain = 0
KAHS 200932Z 20006KT 27/17 A3003 RMK A01 T02720167  RH  053%=      5-min Rain = 0
KAHS 200933Z 19006KT 27/17 A3003 RMK A01 T02720167  RH  052%=      5-min Rain = 0
KAHS 200934Z 19007KT 27/17 A3003 RMK A01 T02720167  RH  053%=      5-min Rain = 0
KAHS 200935Z 19007KT 27/17 A3003 RMK A01 T02720167  RH  053%=      5-min Rain = 0
KAHS 200936Z 19007KT 27/17 A3003 RMK A01 T02720167  RH  053%=      5-min Rain = 0
KAHS 200937Z 19007KT 27/17 A3003 RMK A01 T02720167  RH  053%=      5-min Rain = 0
KAHS 200938Z 20008KT 27/17 A3003 RMK A01 T02720167  RH  052%=      5-min Rain = 0
KAHS 200939Z 20006KT 27/17 A3003 RMK A01 T02730167  RH  052%=      5-min Rain = 0
KAHS 200940Z 20007KT 27/17 A3003 RMK A01 T02720166  RH  052%=      5-min Rain = 0
KAHS 200941Z 20009KT 27/17 A3003 RMK A01 T02730167  RH  052%=      5-min Rain = 0
KAHS 200942Z 20008KT 27/17 A3003 RMK A01 T02740166  RH  052%=      5-min Rain = 0
KAHS 200943Z 20008KT 28/17 A3003 RMK A01 T02750166  RH  051%=      5-min Rain = 0
KAHS 200944Z 20007KT 28/17 A3003 RMK A01 T02750166  RH  052%=      5-min Rain = 0
KAHS 200945Z 20008KT 27/17 A3003 RMK A01 T02740166  RH  052%=      5-min Rain = 0
KAHS 200946Z 20007KT 27/17 A3003 RMK A01 T02740167  RH  052%=      5-min Rain = 0
KAHS 200947Z 20007KT 27/17 A3003 RMK A01 T02730167  RH  052%=      5-min Rain = 0
KAHS 200948Z 20007KT 27/17 A3003 RMK A01 T02720167  RH  052%=      5-min Rain = 0
KAHS 200949Z 20008KT 27/17 A3003 RMK A01 T02720166  RH  052%=      5-min Rain = 0
KAHS 200950Z 20007KT 27/17 A3003 RMK A01 T02720166  RH  052%=      5-min Rain = 0
KAHS 200951Z 20006KT 27/17 A3003 RMK A01 T02720166  RH  052%=      5-min Rain = 0
KAHS 200952Z 20007KT 27/17 A3003 RMK A01 T02720167  RH  053%=      5-min Rain = 0
KAHS 200953Z 20007KT 27/17 A3003 RMK A01 T02720167  RH  053%=      5-min Rain = 0
KAHS 200954Z 20007KT 27/17 A3003 RMK A01 T02710167  RH  053%=      5-min Rain = 0
KAHS 200955Z 20007KT 27/17 A3003 RMK A01 T02700167  RH  053%=      5-min Rain = 0
KAHS 200956Z 20007KT 27/17 A3003 RMK A01 T02700166  RH  053%=      5-min Rain = 0
KAHS 200957Z 20007KT 27/17 A3003 RMK A01 T02700167  RH  053%=      5-min Rain = 0
KAHS 200958Z 21007KT 27/17 A3003 RMK A01 T02700167  RH  053%=      5-min Rain = 0
KAHS 200959Z 20007KT 27/17 A3003 RMK A01 T02690167  RH  054%=      5-min Rain = 0
KAHS 201000Z 20006KT 27/17 A3003 RMK A01 T02690167  RH  054%=      5-min Rain = 0
KAHS 201001Z 20006KT 27/17 A3003 RMK A01 T02680167  RH  054%=      5-min Rain = 0
KAHS 201002Z 20006KT 27/17 A3003 RMK A01 T02680167  RH  054%=      5-min Rain = 0
KAHS 201003Z 21006KT 27/17 A3003 RMK A01 T02670167  RH  054%=      5-min Rain = 0
KAHS 201004Z 20006KT 27/17 A3003 RMK A01 T02670167  RH  054%=      5-min Rain = 0
KAHS 201005Z 21006KT 27/17 A3003 RMK A01 T02660167  RH  054%=      5-min Rain = 0
KAHS 201006Z 20006KT 27/17 A3003 RMK A01 T02660167  RH  054%=      5-min Rain = 0
KAHS 201007Z 20006KT 27/17 A3003 RMK A01 T02660167  RH  054%=      5-min Rain = 0
KAHS 201008Z 20005KT 27/17 A3003 RMK A01 T02660167  RH  055%=      5-min Rain = 0
KAHS 201009Z 20006KT 27/17 A3003 RMK A01 T02660167  RH  054%=      5-min Rain = 0
KAHS 201010Z 20005KT 27/17 A3003 RMK A01 T02660167  RH  054%=      5-min Rain = 0
KAHS 201011Z 20005KT 27/17 A3003 RMK A01 T02650167  RH  055%=      5-min Rain = 0
KAHS 201012Z 21005KT 27/17 A3003 RMK A01 T02650167  RH  055%=      5-min Rain = 0
KAHS 201013Z 21005KT 26/17 A3003 RMK A01 T02640167  RH  055%=      5-min Rain = 0
KAHS 201014Z 21004KT 26/17 A3003 RMK A01 T02630168  RH  056%=      5-min Rain = 0
KAHS 201015Z 21004KT 26/17 A3003 RMK A01 T02630167  RH  056%=      5-min Rain = 0
KAHS 201016Z 21004KT 26/17 A3003 RMK A01 T02620167  RH  056%=      5-min Rain = 0
KAHS 201017Z 21004KT 26/17 A3003 RMK A01 T02620168  RH  056%=      5-min Rain = 0
KAHS 201018Z 21004KT 26/17 A3004 RMK A01 T02610168  RH  056%=      5-min Rain = 0
KAHS 201019Z 21004KT 26/17 A3004 RMK A01 T02610168  RH  057%=      5-min Rain = 0
KAHS 201020Z 21004KT 26/17 A3004 RMK A01 T02600168  RH  057%=      5-min Rain = 0
KAHS 201021Z 21004KT 26/17 A3004 RMK A01 T02600168  RH  057%=      5-min Rain = 0
KAHS 201022Z 22004KT 26/17 A3004 RMK A01 T02590169  RH  057%=      5-min Rain = 0
KAHS 201023Z 22004KT 26/17 A3004 RMK A01 T02580169  RH  058%=      5-min Rain = 0
KAHS 201024Z 22004KT 26/17 A3004 RMK A01 T02580169  RH  058%=      5-min Rain = 0
KAHS 201025Z 22004KT 26/17 A3004 RMK A01 T02580170  RH  058%=      5-min Rain = 0
KAHS 201026Z 23004KT 26/17 A3004 RMK A01 T02570170  RH  058%=      5-min Rain = 0
KAHS 201027Z 23004KT 26/17 A3004 RMK A01 T02570170  RH  059%=      5-min Rain = 0
KAHS 201028Z 23004KT 26/17 A3004 RMK A01 T02560170  RH  059%=      5-min Rain = 0
KAHS 201029Z 23004KT 26/17 A3004 RMK A01 T02560170  RH  059%=      5-min Rain = 0
KAHS 201030Z 23005KT 26/17 A3004 RMK A01 T02560171  RH  059%=      5-min Rain = 0
KAHS 201031Z 23005KT 26/17 A3004 RMK A01 T02550171  RH  060%=      5-min Rain = 0
KAHS 201032Z 23005KT 26/17 A3004 RMK A01 T02550171  RH  060%=      5-min Rain = 0
KAHS 201033Z 23005KT 26/17 A3004 RMK A01 T02550172  RH  060%=      5-min Rain = 0
KAHS 201034Z 23005KT 25/17 A3004 RMK A01 T02540172  RH  060%=      5-min Rain = 0
KAHS 201035Z 23005KT 26/17 A3004 RMK A01 T02550172  RH  060%=      5-min Rain = 0
KAHS 201036Z 22005KT 25/17 A3004 RMK A01 T02540172  RH  061%=      5-min Rain = 0
KAHS 201037Z 22005KT 25/17 A3004 RMK A01 T02540172  RH  061%=      5-min Rain = 0
KAHS 201038Z 22005KT 25/17 A3004 RMK A01 T02540172  RH  060%=      5-min Rain = 0
KAHS 201039Z 22005KT 25/17 A3004 RMK A01 T02540172  RH  060%=      5-min Rain = 0
KAHS 201040Z 22005KT 26/17 A3004 RMK A01 T02550172  RH  060%=      5-min Rain = 0
KAHS 201041Z 22005KT 25/17 A3004 RMK A01 T02540172  RH  060%=      5-min Rain = 0
KAHS 201042Z 21005KT 25/17 A3004 RMK A01 T02540172  RH  060%=      5-min Rain = 0
KAHS 201043Z 21005KT 25/17 A3004 RMK A01 T02540173  RH  061%=      5-min Rain = 0
KAHS 201044Z 21005KT 25/17 A3004 RMK A01 T02530172  RH  061%=      5-min Rain = 0
KAHS 201045Z 21005KT 25/17 A3004 RMK A01 T02540172  RH  060%=      5-min Rain = 0
KAHS 201046Z 21005KT 25/17 A3004 RMK A01 T02540172  RH  060%=      5-min Rain = 0
KAHS 201047Z 22005KT 26/17 A3004 RMK A01 T02550172  RH  060%=      5-min Rain = 0
KAHS 201048Z 22005KT 26/17 A3004 RMK A01 T02550172  RH  060%=      5-min Rain = 0
KAHS 201049Z 21005KT 26/17 A3004 RMK A01 T02550171  RH  060%=      5-min Rain = 0
KAHS 201050Z 22005KT 26/17 A3004 RMK A01 T02550171  RH  060%=      5-min Rain = 0
KAHS 201051Z 22005KT 26/17 A3004 RMK A01 T02550171  RH  060%=      5-min Rain = 0
KAHS 201052Z 22005KT 26/17 A3004 RMK A01 T02560171  RH  059%=      5-min Rain = 0
KAHS 201053Z 22005KT 26/17 A3004 RMK A01 T02560171  RH  059%=      5-min Rain = 0
KAHS 201054Z 22004KT 26/17 A3004 RMK A01 T02560171  RH  059%=      5-min Rain = 0
KAHS 201055Z 22005KT 26/17 A3004 RMK A01 T02560171  RH  059%=      5-min Rain = 0
KAHS 201056Z 22004KT 26/17 A3004 RMK A01 T02560171  RH  059%=      5-min Rain = 0
KAHS 201057Z 22005KT 26/17 A3004 RMK A01 T02560170  RH  059%=      5-min Rain = 0
KAHS 201058Z 22004KT 26/17 A3004 RMK A01 T02560170  RH  059%=      5-min Rain = 0
KAHS 201059Z 22004KT 26/17 A3005 RMK A01 T02560171  RH  059%=      5-min Rain = 0
KAHS 201100Z 22004KT 26/17 A3005 RMK A01 T02560171  RH  059%=      5-min Rain = 0
KAHS 201101Z 22004KT 26/17 A3005 RMK A01 T02560171  RH  059%=      5-min Rain = 0
KAHS 201102Z 22004KT 26/17 A3005 RMK A01 T02560171  RH  059%=      5-min Rain = 0
KAHS 201103Z 22004KT 26/17 A3005 RMK A01 T02560171  RH  059%=      5-min Rain = 0
KAHS 201104Z 22004KT 26/17 A3005 RMK A01 T02560171  RH  059%=      5-min Rain = 0
KAHS 201105Z 23004KT 26/17 A3005 RMK A01 T02550171  RH  060%=      5-min Rain = 0
KAHS 201106Z 22004KT 26/17 A3005 RMK A01 T02550171  RH  060%=      5-min Rain = 0
KAHS 201107Z 22004KT 25/17 A3005 RMK A01 T02540171  RH  060%=      5-min Rain = 0
KAHS 201108Z 22004KT 26/17 A3005 RMK A01 T02550171  RH  060%=      5-min Rain = 0
KAHS 201109Z 22003KT 25/17 A3005 RMK A01 T02540171  RH  060%=      5-min Rain = 0
KAHS 201110Z 22003KT 25/17 A3005 RMK A01 T02540171  RH  060%=      5-min Rain = 0
KAHS 201111Z 22003KT 25/17 A3005 RMK A01 T02540171  RH  060%=      5-min Rain = 0
KAHS 201112Z 22003KT 26/17 A3005 RMK A01 T02550171  RH  060%=      5-min Rain = 0
KAHS 201113Z 22003KT 26/17 A3005 RMK A01 T02550171  RH  060%=      5-min Rain = 0
KAHS 201114Z 21003KT 26/17 A3005 RMK A01 T02550171  RH  060%=      5-min Rain = 0
KAHS 201115Z 22003KT 26/17 A3005 RMK A01 T02550171  RH  060%=      5-min Rain = 0
KAHS 201116Z 22003KT 26/17 A3005 RMK A01 T02550171  RH  060%=      5-min Rain = 0
KAHS 201117Z 22003KT 26/17 A3005 RMK A01 T02550170  RH  060%=      5-min Rain = 0
KAHS 201118Z 22003KT 26/17 A3005 RMK A01 T02550171  RH  060%=      5-min Rain = 0
KAHS 201119Z 22003KT 26/17 A3005 RMK A01 T02550171  RH  060%=      5-min Rain = 0
KAHS 201120Z 21002KT 26/17 A3005 RMK A01 T02550171  RH  060%=      5-min Rain = 0
KAHS 201121Z 22002KT 26/17 A3005 RMK A01 T02550171  RH  059%=      5-min Rain = 0
KAHS 201122Z 22002KT 26/17 A3005 RMK A01 T02550170  RH  059%=      5-min Rain = 0
KAHS 201123Z 21003KT 26/17 A3005 RMK A01 T02550170  RH  059%=      5-min Rain = 0
KAHS 201124Z 22002KT 26/17 A3005 RMK A01 T02550170  RH  059%=      5-min Rain = 0
KAHS 201125Z 21002KT 26/17 A3005 RMK A01 T02550170  RH  059%=      5-min Rain = 0
KAHS 201126Z 20001KT 26/17 A3005 RMK A01 T02550171  RH  060%=      5-min Rain = 0
KAHS 201127Z 20002KT 26/17 A3005 RMK A01 T02550172  RH  060%=      5-min Rain = 0
KAHS 201128Z 20002KT 25/17 A3005 RMK A01 T02540171  RH  060%=      5-min Rain = 0
KAHS 201129Z 20001KT 26/17 A3005 RMK A01 T02550171  RH  060%=      5-min Rain = 0
KAHS 201130Z 20001KT 25/17 A3005 RMK A01 T02540171  RH  060%=      5-min Rain = 0
KAHS 201131Z 20001KT 26/17 A3005 RMK A01 T02550171  RH  060%=      5-min Rain = 0
KAHS 201132Z 20002KT 26/17 A3005 RMK A01 T02550171  RH  060%=      5-min Rain = 0
KAHS 201133Z 20002KT 26/17 A3005 RMK A01 T02550171  RH  060%=      5-min Rain = 0
KAHS 201134Z 21002KT 26/17 A3005 RMK A01 T02550171  RH  060%=      5-min Rain = 0
KAHS 201135Z 21002KT 25/17 A3005 RMK A01 T02540171  RH  060%=      5-min Rain = 0
KAHS 201136Z 22002KT 25/17 A3005 RMK A01 T02540171  RH  060%=      5-min Rain = 0
KAHS 201137Z 22002KT 25/17 A3005 RMK A01 T02540172  RH  060%=      5-min Rain = 0
KAHS 201138Z 23003KT 25/17 A3005 RMK A01 T02540171  RH  060%=      5-min Rain = 0
KAHS 201139Z 23003KT 25/17 A3005 RMK A01 T02530171  RH  060%=      5-min Rain = 0
KAHS 201140Z 23003KT 25/17 A3005 RMK A01 T02530172  RH  061%=      5-min Rain = 0
KAHS 201141Z 23004KT 25/17 A3005 RMK A01 T02530171  RH  061%=      5-min Rain = 0
KAHS 201142Z 24003KT 25/17 A3005 RMK A01 T02520172  RH  061%=      5-min Rain = 0
KAHS 201143Z 24004KT 25/17 A3005 RMK A01 T02520172  RH  061%=      5-min Rain = 0
KAHS 201144Z 24004KT 25/17 A3005 RMK A01 T02510173  RH  062%=      5-min Rain = 0
KAHS 201145Z 23004KT 25/17 A3005 RMK A01 T02500173  RH  062%=      5-min Rain = 0
KAHS 201146Z 23004KT 25/17 A3006 RMK A01 T02490173  RH  063%=      5-min Rain = 0
KAHS 201147Z 23004KT 25/17 A3006 RMK A01 T02490173  RH  063%=      5-min Rain = 0
KAHS 201148Z 23003KT 25/17 A3006 RMK A01 T02490173  RH  063%=      5-min Rain = 0
KAHS 201149Z 22004KT 25/17 A3006 RMK A01 T02490173  RH  063%=      5-min Rain = 0
KAHS 201150Z 22003KT 25/17 A3006 RMK A01 T02500173  RH  062%=      5-min Rain = 0
KAHS 201151Z 22002KT 25/17 A3006 RMK A01 T02490173  RH  063%=      5-min Rain = 0
KAHS 201152Z 22003KT 25/17 A3006 RMK A01 T02490174  RH  063%=      5-min Rain = 0
KAHS 201153Z 22003KT 25/17 A3006 RMK A01 T02490173  RH  063%=      5-min Rain = 0
KAHS 201154Z 22003KT 25/17 A3006 RMK A01 T02490173  RH  063%=      5-min Rain = 0
KAHS 201155Z 23004KT 25/17 A3006 RMK A01 T02500173  RH  062%=      5-min Rain = 0
KAHS 201156Z 22003KT 25/17 A3006 RMK A01 T02510173  RH  062%=      5-min Rain = 0
KAHS 201157Z 22003KT 25/17 A3006 RMK A01 T02510173  RH  062%=      5-min Rain = 0
KAHS 201158Z 22003KT 25/17 A3006 RMK A01 T02520172  RH  061%=      5-min Rain = 0
KAHS 201159Z 22004KT 25/17 A3006 RMK A01 T02530173  RH  061%=      5-min Rain = 0
KAHS 201200Z 22005KT 25/17 A3006 RMK A01 T02530172  RH  061%=      5-min Rain = 0
KAHS 201201Z 21004KT 25/17 A3006 RMK A01 T02530173  RH  061%=      5-min Rain = 0
KAHS 201202Z 21004KT 25/17 A3006 RMK A01 T02520173  RH  062%=      5-min Rain = 0
KAHS 201203Z 21004KT 25/17 A3006 RMK A01 T02510173  RH  062%=      5-min Rain = 0
KAHS 201204Z 20004KT 25/17 A3006 RMK A01 T02510174  RH  062%=      5-min Rain = 0
KAHS 201205Z 20003KT 25/17 A3006 RMK A01 T02500174  RH  063%=      5-min Rain = 0
KAHS 201206Z 19004KT 25/17 A3006 RMK A01 T02490174  RH  063%=      5-min Rain = 0
KAHS 201207Z 19004KT 25/17 A3006 RMK A01 T02490174  RH  063%=      5-min Rain = 0
KAHS 201208Z 19004KT 25/18 A3006 RMK A01 T02480175  RH  064%=      5-min Rain = 0
KAHS 201209Z 19003KT 25/18 A3006 RMK A01 T02470175  RH  064%=      5-min Rain = 0
KAHS 201210Z 20004KT 25/18 A3006 RMK A01 T02460175  RH  064%=      5-min Rain = 0
KAHS 201211Z 20004KT 25/17 A3006 RMK A01 T02460174  RH  064%=      5-min Rain = 0
KAHS 201212Z 20004KT 25/17 A3006 RMK A01 T02460174  RH  064%=      5-min Rain = 0
KAHS 201213Z 20004KT 25/17 A3006 RMK A01 T02460173  RH  064%=      5-min Rain = 0
KAHS 201214Z 20005KT 25/17 A3006 RMK A01 T02470173  RH  064%=      5-min Rain = 0
KAHS 201215Z 20004KT 25/17 A3006 RMK A01 T02470173  RH  064%=      5-min Rain = 0
KAHS 201216Z 21004KT 25/17 A3006 RMK A01 T02470173  RH  064%=      5-min Rain = 0
KAHS 201217Z 21004KT 25/17 A3006 RMK A01 T02470173  RH  064%=      5-min Rain = 0
KAHS 201218Z 21004KT 25/17 A3006 RMK A01 T02470173  RH  063%=      5-min Rain = 0
KAHS 201219Z 21004KT 25/17 A3006 RMK A01 T02470173  RH  063%=      5-min Rain = 0
KAHS 201220Z 20004KT 25/17 A3006 RMK A01 T02480173  RH  063%=      5-min Rain = 0
KAHS 201221Z 21004KT 25/17 A3006 RMK A01 T02480173  RH  063%=      5-min Rain = 0
KAHS 201222Z 21004KT 25/17 A3006 RMK A01 T02490173  RH  063%=      5-min Rain = 0
KAHS 201223Z 20004KT 25/17 A3006 RMK A01 T02480173  RH  063%=      5-min Rain = 0
KAHS 201224Z 20004KT 25/17 A3006 RMK A01 T02480173  RH  063%=      5-min Rain = 0
KAHS 201225Z 19004KT 25/17 A3006 RMK A01 T02480173  RH  063%=      5-min Rain = 0
KAHS 201226Z 19004KT 25/17 A3006 RMK A01 T02490173  RH  063%=      5-min Rain = 0
KAHS 201227Z 20004KT 25/17 A3006 RMK A01 T02490173  RH  063%=      5-min Rain = 0
KAHS 201228Z 20004KT 25/17 A3006 RMK A01 T02490173  RH  063%=      5-min Rain = 0
KAHS 201229Z 20004KT 25/17 A3006 RMK A01 T02490173  RH  062%=      5-min Rain = 0
KAHS 201230Z 20004KT 25/17 A3006 RMK A01 T02490172  RH  062%=      5-min Rain = 0
KAHS 201231Z 20004KT 25/17 A3006 RMK A01 T02490172  RH  062%=      5-min Rain = 0
KAHS 201232Z 20004KT 25/17 A3006 RMK A01 T02490173  RH  062%=      5-min Rain = 0
KAHS 201233Z 20004KT 25/17 A3006 RMK A01 T02490173  RH  062%=      5-min Rain = 0
KAHS 201234Z 21004KT 25/17 A3006 RMK A01 T02490173  RH  062%=      5-min Rain = 0
KAHS 201235Z 21005KT 25/17 A3006 RMK A01 T02490173  RH  063%=      5-min Rain = 0
KAHS 201236Z 22004KT 25/17 A3006 RMK A01 T02490174  RH  063%=      5-min Rain = 0
KAHS 201237Z 22005KT 25/17 A3006 RMK A01 T02490174  RH  063%=      5-min Rain = 0
KAHS 201238Z 22004KT 25/17 A3006 RMK A01 T02500174  RH  063%=      5-min Rain = 0
KAHS 201239Z 22004KT 25/18 A3006 RMK A01 T02490175  RH  063%=      5-min Rain = 0
KAHS 201240Z 23004KT 25/18 A3006 RMK A01 T02490175  RH  064%=      5-min Rain = 0
KAHS 201241Z 22004KT 25/18 A3006 RMK A01 T02490176  RH  064%=      5-min Rain = 0
KAHS 201242Z 22004KT 25/18 A3006 RMK A01 T02490176  RH  064%=      5-min Rain = 0
KAHS 201243Z 22004KT 25/18 A3006 RMK A01 T02500176  RH  063%=      5-min Rain = 0
KAHS 201244Z 22004KT 25/18 A3006 RMK A01 T02500176  RH  064%=      5-min Rain = 0
KAHS 201245Z 22004KT 25/18 A3006 RMK A01 T02510177  RH  064%=      5-min Rain = 0
KAHS 201246Z 22003KT 25/18 A3006 RMK A01 T02510177  RH  064%=      5-min Rain = 0
KAHS 201247Z 21003KT 25/18 A3006 RMK A01 T02510178  RH  064%=      5-min Rain = 0
KAHS 201248Z 21002KT 25/18 A3006 RMK A01 T02520178  RH  064%=      5-min Rain = 0
KAHS 201249Z 21003KT 25/18 A3006 RMK A01 T02520178  RH  063%=      5-min Rain = 0
KAHS 201250Z 21003KT 25/18 A3006 RMK A01 T02530178  RH  063%=      5-min Rain = 0
KAHS 201251Z 21003KT 25/18 A3006 RMK A01 T02530179  RH  063%=      5-min Rain = 0
KAHS 201252Z 20002KT 25/18 A3006 RMK A01 T02540180  RH  064%=      5-min Rain = 0
KAHS 201253Z 20002KT 26/18 A3006 RMK A01 T02550181  RH  064%=      5-min Rain = 0
KAHS 201254Z 20002KT 26/18 A3006 RMK A01 T02550181  RH  064%=      5-min Rain = 0
KAHS 201255Z 20002KT 26/18 A3006 RMK A01 T02560182  RH  064%=      5-min Rain = 0
KAHS 201256Z 20003KT 26/18 A3006 RMK A01 T02560181  RH  063%=      5-min Rain = 0
KAHS 201257Z 20003KT 26/18 A3006 RMK A01 T02560182  RH  064%=      5-min Rain = 0
KAHS 201258Z 20002KT 26/18 A3006 RMK A01 T02570184  RH  064%=      5-min Rain = 0
KAHS 201259Z 21003KT 26/18 A3006 RMK A01 T02570182  RH  063%=      5-min Rain = 0
KAHS 201300Z 21003KT 26/18 A3006 RMK A01 T02570181  RH  063%=      5-min Rain = 0
KAHS 201301Z 20003KT 26/18 A3006 RMK A01 T02580181  RH  062%=      5-min Rain = 0
KAHS 201302Z 20003KT 26/18 A3006 RMK A01 T02590182  RH  062%=      5-min Rain = 0
KAHS 201303Z 20003KT 26/18 A3006 RMK A01 T02600183  RH  063%=      5-min Rain = 0
KAHS 201304Z 20004KT 26/18 A3006 RMK A01 T02600183  RH  062%=      5-min Rain = 0
KAHS 201305Z 20004KT 26/18 A3006 RMK A01 T02610184  RH  062%=      5-min Rain = 0
KAHS 201306Z 20005KT 26/18 A3006 RMK A01 T02620183  RH  062%=      5-min Rain = 0
KAHS 201307Z 20004KT 26/18 A3006 RMK A01 T02630183  RH  061%=      5-min Rain = 0
KAHS 201308Z 20003KT 26/18 A3006 RMK A01 T02640183  RH  061%=      5-min Rain = 0
KAHS 201309Z 20004KT 27/18 A3007 RMK A01 T02650182  RH  061%=      5-min Rain = 0
KAHS 201310Z 19003KT 27/18 A3007 RMK A01 T02650182  RH  060%=      5-min Rain = 0
KAHS 201311Z 19004KT 27/18 A3007 RMK A01 T02660183  RH  060%=      5-min Rain = 0
KAHS 201312Z 18003KT 27/18 A3007 RMK A01 T02670182  RH  060%=      5-min Rain = 0
KAHS 201313Z 18003KT 27/18 A3007 RMK A01 T02680182  RH  059%=      5-min Rain = 0
KAHS 201314Z 19003KT 27/18 A3007 RMK A01 T02680181  RH  059%=      5-min Rain = 0
KAHS 201315Z 19003KT 27/18 A3007 RMK A01 T02690181  RH  059%=      5-min Rain = 0
KAHS 201316Z 19003KT 27/18 A3007 RMK A01 T02690181  RH  058%=      5-min Rain = 0
KAHS 201317Z 19004KT 27/18 A3007 RMK A01 T02700181  RH  058%=      5-min Rain = 0
KAHS 201318Z 20004KT 27/18 A3007 RMK A01 T02700181  RH  058%=      5-min Rain = 0
KAHS 201319Z 20004KT 27/18 A3007 RMK A01 T02710181  RH  058%=      5-min Rain = 0
KAHS 201320Z 20003KT 27/18 A3007 RMK A01 T02710182  RH  058%=      5-min Rain = 0
KAHS 201321Z 20004KT 27/18 A3007 RMK A01 T02720183  RH  058%=      5-min Rain = 0
KAHS 201322Z 20003KT 27/18 A3007 RMK A01 T02730183  RH  058%=      5-min Rain = 0
KAHS 201323Z 20003KT 27/18 A3007 RMK A01 T02740183  RH  058%=      5-min Rain = 0
KAHS 201324Z 20005KT 28/18 A3007 RMK A01 T02750183  RH  058%=      5-min Rain = 0
KAHS 201325Z 21005KT 28/18 A3007 RMK A01 T02750181  RH  057%=      5-min Rain = 0
KAHS 201326Z 20005KT 28/18 A3007 RMK A01 T02750182  RH  057%=      5-min Rain = 0
KAHS 201327Z 21006KT 28/18 A3007 RMK A01 T02750182  RH  057%=      5-min Rain = 0
KAHS 201328Z 20005KT 28/18 A3007 RMK A01 T02760182  RH  057%=      5-min Rain = 0
KAHS 201329Z 21005KT 28/18 A3007 RMK A01 T02760182  RH  057%=      5-min Rain = 0
KAHS 201330Z 22005KT 28/18 A3007 RMK A01 T02770182  RH  056%=      5-min Rain = 0
KAHS 201331Z 20004KT 28/18 A3007 RMK A01 T02780182  RH  056%=      5-min Rain = 0
KAHS 201332Z 20005KT 28/18 A3007 RMK A01 T02780181  RH  056%=      5-min Rain = 0
KAHS 201333Z 21006KT 28/18 A3007 RMK A01 T02780182  RH  056%=      5-min Rain = 0
KAHS 201334Z 21005KT 28/18 A3007 RMK A01 T02780182  RH  056%=      5-min Rain = 0
KAHS 201335Z 20003KT 28/18 A3007 RMK A01 T02790183  RH  056%=      5-min Rain = 0
KAHS 201336Z 19003KT 28/18 A3007 RMK A01 T02810184  RH  055%=      5-min Rain = 0
KAHS 201337Z 20004KT 28/18 A3007 RMK A01 T02810183  RH  055%=      5-min Rain = 0
KAHS 201338Z 20005KT 28/18 A3007 RMK A01 T02820182  RH  055%=      5-min Rain = 0
KAHS 201339Z 20006KT 28/18 A3007 RMK A01 T02820181  RH  054%=      5-min Rain = 0
KAHS 201340Z 20005KT 28/18 A3007 RMK A01 T02820181  RH  054%=      5-min Rain = 0
KAHS 201341Z 20006KT 28/18 A3007 RMK A01 T02810181  RH  054%=      5-min Rain = 0
KAHS 201342Z 21006KT 28/18 A3007 RMK A01 T02820182  RH  055%=      5-min Rain = 0
KAHS 201343Z 21006KT 28/18 A3007 RMK A01 T02830182  RH  054%=      5-min Rain = 0
KAHS 201344Z 20007KT 28/18 A3007 RMK A01 T02830182  RH  054%=      5-min Rain = 0
KAHS 201345Z 20006KT 28/18 A3007 RMK A01 T02830181  RH  054%=      5-min Rain = 0
KAHS 201346Z 20007KT 28/18 A3007 RMK A01 T02840182  RH  054%=      5-min Rain = 0
KAHS 201347Z 21008KT 28/18 A3007 RMK A01 T02840181  RH  054%=      5-min Rain = 0
KAHS 201348Z 21006KT 28/18 A3007 RMK A01 T02840182  RH  054%=      5-min Rain = 0
KAHS 201349Z 21007KT 28/18 A3007 RMK A01 T02840182  RH  054%=      5-min Rain = 0
KAHS 201350Z 21005KT 29/18 A3007 RMK A01 T02850183  RH  054%=      5-min Rain = 0
KAHS 201351Z 22006KT 29/18 A3007 RMK A01 T02870184  RH  054%=      5-min Rain = 0
KAHS 201352Z 21006KT 29/18 A3007 RMK A01 T02870184  RH  053%=      5-min Rain = 0
KAHS 201353Z 22006KT 29/18 A3007 RMK A01 T02880184  RH  053%=      5-min Rain = 0
KAHS 201354Z 22005KT 29/18 A3007 RMK A01 T02890184  RH  053%=      5-min Rain = 0
KAHS 201355Z 21007KT 29/18 A3007 RMK A01 T02900184  RH  053%=      5-min Rain = 0
KAHS 201356Z 21010KT 29/18 A3007 RMK A01 T02910184  RH  052%=      5-min Rain = 0
KAHS 201357Z 21009KT 29/18 A3007 RMK A01 T02890181  RH  052%=      5-min Rain = 0
KAHS 201358Z 22009KT 29/18 A3007 RMK A01 T02880182  RH  053%=      5-min Rain = 0
KAHS 201359Z 22009KT 29/18 A3007 RMK A01 T02870182  RH  053%=      5-min Rain = 0
KAHS 201400Z 22010KT 29/18 A3007 RMK A01 T02870181  RH  053%=      5-min Rain = 0
KAHS 201401Z 22009KT 29/18 A3007 RMK A01 T02870182  RH  053%=      5-min Rain = 0
KAHS 201402Z 22008KT 29/18 A3007 RMK A01 T02870182  RH  053%=      5-min Rain = 0
KAHS 201403Z 22007KT 29/18 A3007 RMK A01 T02880183  RH  053%=      5-min Rain = 0
KAHS 201404Z 22007KT 29/18 A3007 RMK A01 T02900183  RH  053%=      5-min Rain = 0
KAHS 201405Z 22009KT 29/18 A3007 RMK A01 T02900182  RH  052%=      5-min Rain = 0
KAHS 201406Z 22006KT 29/18 A3007 RMK A01 T02890183  RH  053%=      5-min Rain = 0
KAHS 201407Z 23008KT 29/18 A3007 RMK A01 T02910184  RH  053%=      5-min Rain = 0
KAHS 201408Z 21010KT 29/18 A3007 RMK A01 T02910183  RH  052%=      5-min Rain = 0
KAHS 201409Z 21009KT 29/18 A3007 RMK A01 T02900182  RH  052%=      5-min Rain = 0
KAHS 201410Z 22007KT 29/18 A3007 RMK A01 T02910184  RH  052%=      5-min Rain = 0
KAHS 201411Z 23007KT 29/18 A3007 RMK A01 T02920184  RH  052%=      5-min Rain = 0
KAHS 201412Z 22007KT 29/18 A3007 RMK A01 T02920182  RH  052%=      5-min Rain = 0
KAHS 201413Z 22007KT 29/18 A3007 RMK A01 T02910183  RH  052%=      5-min Rain = 0
KAHS 201414Z 23006KT 29/18 A3007 RMK A01 T02920184  RH  052%=      5-min Rain = 0
KAHS 201415Z 24007KT 30/19 A3007 RMK A01 T02950185  RH  052%=      5-min Rain = 0
KAHS 201416Z 25007KT 30/18 A3007 RMK A01 T02960184  RH  051%=      5-min Rain = 0
KAHS 201417Z 23009KT 30/18 A3007 RMK A01 T02950183  RH  051%=      5-min Rain = 0
KAHS 201418Z 23007KT 30/19 A3007 RMK A01 T02950185  RH  051%=      5-min Rain = 0
KAHS 201419Z 22007KT 30/18 A3007 RMK A01 T02960184  RH  051%=      5-min Rain = 0
KAHS 201420Z 22007KT 30/18 A3007 RMK A01 T02970184  RH  051%=      5-min Rain = 0
KAHS 201421Z 22008KT 30/18 A3007 RMK A01 T02960183  RH  051%=      5-min Rain = 0
KAHS 201422Z 21007KT 30/18 A3007 RMK A01 T02960184  RH  051%=      5-min Rain = 0
KAHS 201423Z 20008KT 30/18 A3007 RMK A01 T02960184  RH  051%=      5-min Rain = 0
KAHS 201424Z 22009KT 30/18 A3007 RMK A01 T02960184  RH  051%=      5-min Rain = 0
KAHS 201425Z 23009KT 30/18 A3007 RMK A01 T02960183  RH  051%=      5-min Rain = 0
KAHS 201426Z 23008KT 30/18 A3007 RMK A01 T02960183  RH  051%=      5-min Rain = 0
KAHS 201427Z 21008KT 30/18 A3007 RMK A01 T02960184  RH  051%=      5-min Rain = 0
KAHS 201428Z 22010KT 30/18 A3007 RMK A01 T02970184  RH  051%=      5-min Rain = 0
KAHS 201429Z 21009KT 30/18 A3007 RMK A01 T02970183  RH  050%=      5-min Rain = 0
KAHS 201430Z 22008KT 30/18 A3007 RMK A01 T02980184  RH  050%=      5-min Rain = 0
KAHS 201431Z 22007KT 30/19 A3007 RMK A01 T03000185  RH  050%=      5-min Rain = 0
KAHS 201432Z 24007KT 30/18 A3007 RMK A01 T03010184  RH  050%=      5-min Rain = 0
KAHS 201433Z 24009KT 30/18 A3007 RMK A01 T03000184  RH  050%=      5-min Rain = 0
KAHS 201434Z 23008KT 30/18 A3007 RMK A01 T03000184  RH  050%=      5-min Rain = 0
KAHS 201435Z 24008KT 30/18 A3007 RMK A01 T02990183  RH  050%=      5-min Rain = 0
KAHS 201436Z 24009KT 30/18 A3007 RMK A01 T03000183  RH  050%=      5-min Rain = 0
KAHS 201437Z 23009KT 30/18 A3007 RMK A01 T02990183  RH  050%=      5-min Rain = 0
KAHS 201438Z 23008KT 30/18 A3007 RMK A01 T02990183  RH  050%=      5-min Rain = 0
KAHS 201439Z 25007KT 30/19 A3007 RMK A01 T03010185  RH  050%=      5-min Rain = 0
KAHS 201440Z 23010KT 30/18 A3007 RMK A01 T03010183  RH  049%=      5-min Rain = 0
KAHS 201441Z 23008KT 30/18 A3007 RMK A01 T03000183  RH  050%=      5-min Rain = 0
KAHS 201442Z 23008KT 30/18 A3007 RMK A01 T03000184  RH  050%=      5-min Rain = 0
KAHS 201443Z 23009KT 30/18 A3007 RMK A01 T03010184  RH  050%=      5-min Rain = 0
KAHS 201444Z 24008KT 30/19 A3007 RMK A01 T03010185  RH  050%=      5-min Rain = 0
KAHS 201445Z 23010KT 30/19 A3007 RMK A01 T03020185  RH  050%=      5-min Rain = 0
KAHS 201446Z 24010KT 30/18 A3007 RMK A01 T03020184  RH  049%=      5-min Rain = 0
KAHS 201447Z 24009KT 30/18 A3007 RMK A01 T03020184  RH  049%=      5-min Rain = 0
KAHS 201448Z 24010KT 30/18 A3007 RMK A01 T03020183  RH  049%=      5-min Rain = 0
KAHS 201449Z 24010KT 30/18 A3007 RMK A01 T03010184  RH  049%=      5-min Rain = 0
KAHS 201450Z 24011KT 30/18 A3007 RMK A01 T03010184  RH  049%=      5-min Rain = 0
KAHS 201451Z 23009KT 30/18 A3007 RMK A01 T03020184  RH  049%=      5-min Rain = 0
KAHS 201452Z 24010KT 30/19 A3007 RMK A01 T03030185  RH  049%=      5-min Rain = 0
KAHS 201453Z 24009KT 30/19 A3007 RMK A01 T03040185  RH  049%=      5-min Rain = 0
KAHS 201454Z 23009KT 31/19 A3007 RMK A01 T03050185  RH  049%=      5-min Rain = 0
KAHS 201455Z 23010KT 31/19 A3007 RMK A01 T03050186  RH  049%=      5-min Rain = 0
KAHS 201456Z 25008KT 31/19 A3007 RMK A01 T03060187  RH  049%=      5-min Rain = 0
KAHS 201457Z 23008G13KT 31/19 A3007 RMK A01 T03080187  RH  049%=      5-min Rain = 0
KAHS 201458Z 24011KT 31/19 A3007 RMK A01 T03080186  RH  048%=      5-min Rain = 0
KAHS 201459Z 24009KT 31/19 A3007 RMK A01 T03070186  RH  049%=      5-min Rain = 0
KAHS 201500Z 22008KT 31/19 A3007 RMK A01 T03070186  RH  049%=      5-min Rain = 0
KAHS 201501Z 24009KT 31/19 A3007 RMK A01 T03070188  RH  049%=      5-min Rain = 0
KAHS 201502Z 23010KT 31/19 A3007 RMK A01 T03070188  RH  049%=      5-min Rain = 0
KAHS 201503Z 24008KT 31/19 A3007 RMK A01 T03070187  RH  049%=      5-min Rain = 0
KAHS 201504Z 24008KT 31/19 A3007 RMK A01 T03070188  RH  049%=      5-min Rain = 0
KAHS 201505Z 23009KT 31/19 A3008 RMK A01 T03080189  RH  049%=      5-min Rain = 0
KAHS 201506Z 23009KT 31/19 A3008 RMK A01 T03080189  RH  049%=      5-min Rain = 0
KAHS 201507Z 23009KT 31/19 A3007 RMK A01 T03090188  RH  049%=      5-min Rain = 0
KAHS 201508Z 22010KT 31/19 A3007 RMK A01 T03090188  RH  049%=      5-min Rain = 0
KAHS 201509Z 23007G12KT 31/19 A3007 RMK A01 T03080188  RH  049%=      5-min Rain = 0
KAHS 201510Z 21009KT 31/19 A3007 RMK A01 T03070189  RH  049%=      5-min Rain = 0
KAHS 201511Z 22010KT 31/19 A3007 RMK A01 T03070190  RH  049%=      5-min Rain = 0
KAHS 201512Z 21011KT 31/19 A3007 RMK A01 T03070188  RH  049%=      5-min Rain = 0
KAHS 201513Z 21009KT 31/19 A3007 RMK A01 T03060188  RH  049%=      5-min Rain = 0
KAHS 201514Z 22008KT 31/19 A3007 RMK A01 T03070189  RH  050%=      5-min Rain = 0
KAHS 201515Z 19009KT 31/19 A3007 RMK A01 T03080190  RH  050%=      5-min Rain = 0
KAHS 201516Z 20007KT 31/19 A3007 RMK A01 T03090190  RH  049%=      5-min Rain = 0
KAHS 201517Z 22007KT 31/19 A3008 RMK A01 T03120191  RH  049%=      5-min Rain = 0
KAHS 201518Z 19008KT 31/19 A3008 RMK A01 T03140190  RH  048%=      5-min Rain = 0
KAHS 201519Z 20007KT 31/19 A3008 RMK A01 T03130190  RH  048%=      5-min Rain = 0
KAHS 201520Z 19008KT 32/19 A3008 RMK A01 T03150191  RH  048%=      5-min Rain = 0
KAHS 201521Z 22010KT 32/19 A3008 RMK A01 T03160190  RH  047%=      5-min Rain = 0
KAHS 201522Z 20007KT 31/19 A3008 RMK A01 T03130189  RH  048%=      5-min Rain = 0
KAHS 201523Z 18007KT 31/19 A3008 RMK A01 T03140191  RH  048%=      5-min Rain = 0
KAHS 201524Z 18009KT 32/19 A3008 RMK A01 T03160190  RH  047%=      5-min Rain = 0
KAHS 201525Z 18009KT 32/19 A3008 RMK A01 T03150190  RH  048%=      5-min Rain = 0
KAHS 201526Z 18008KT 32/19 A3008 RMK A01 T03160191  RH  048%=      5-min Rain = 0
KAHS 201527Z 20008KT 32/19 A3008 RMK A01 T03180192  RH  047%=      5-min Rain = 0
KAHS 201528Z 22008KT 32/19 A3008 RMK A01 T03170189  RH  047%=      5-min Rain = 0
KAHS 201529Z 22009KT 31/19 A3008 RMK A01 T03140189  RH  047%=      5-min Rain = 0
KAHS 201530Z 22007KT 31/19 A3008 RMK A01 T03120188  RH  048%=      5-min Rain = 0
KAHS 201531Z 21006KT 31/19 A3008 RMK A01 T03120189  RH  048%=      5-min Rain = 0
KAHS 201532Z 21005KT 31/19 A3008 RMK A01 T03140190  RH  048%=      5-min Rain = 0
KAHS 201533Z 24007KT 32/19 A3008 RMK A01 T03160189  RH  047%=      5-min Rain = 0
KAHS 201534Z 21008KT 32/19 A3008 RMK A01 T03160189  RH  047%=      5-min Rain = 0
KAHS 201535Z 20007KT 31/19 A3008 RMK A01 T03140188  RH  047%=      5-min Rain = 0
KAHS 201536Z 18007KT 32/19 A3008 RMK A01 T03160190  RH  047%=      5-min Rain = 0
KAHS 201537Z 18007KT 32/19 A3008 RMK A01 T03170189  RH  047%=      5-min Rain = 0
KAHS 201538Z 19008KT 32/19 A3008 RMK A01 T03160188  RH  047%=      5-min Rain = 0
KAHS 201539Z 18006KT 32/19 A3008 RMK A01 T03160190  RH  047%=      5-min Rain = 0
KAHS 201540Z 22004KT 32/19 A3008 RMK A01 T03180191  RH  047%=      5-min Rain = 0
KAHS 201541Z 24005KT 32/19 A3008 RMK A01 T03210191  RH  046%=      5-min Rain = 0
KAHS 201542Z 26009KT 32/19 A3008 RMK A01 T03210189  RH  045%=      5-min Rain = 0
KAHS 201543Z 25009KT 32/19 A3008 RMK A01 T03190189  RH  046%=      5-min Rain = 0
KAHS 201544Z 24006KT 32/19 A3008 RMK A01 T03170189  RH  047%=      5-min Rain = 0
KAHS 201545Z 21003KT 32/19 A3008 RMK A01 T03170189  RH  047%=      5-min Rain = 0
KAHS 201546Z 19005KT 32/19 A3009 RMK A01 T03200191  RH  047%=      5-min Rain = 0
KAHS 201547Z 21007KT 32/19 A3009 RMK A01 T03220191  RH  046%=      5-min Rain = 0
KAHS 201548Z 24003KT 32/19 A3009 RMK A01 T03210188  RH  045%=      5-min Rain = 0
KAHS 201549Z 19005KT 32/19 A3009 RMK A01 T03200189  RH  046%=      5-min Rain = 0
KAHS 201550Z 16001KT 32/19 A3009 RMK A01 T03200188  RH  045%=      5-min Rain = 0
KAHS 201551Z 20002KT 32/19 A3009 RMK A01 T03230190  RH  045%=      5-min Rain = 0
KAHS 201552Z 22006G11KT 33/19 A3009 RMK A01 T03270190  RH  045%=      5-min Rain = 0
KAHS 201553Z 22008KT 33/19 A3009 RMK A01 T03260189  RH  044%=      5-min Rain = 0
KAHS 201554Z 25005KT 32/19 A3009 RMK A01 T03240189  RH  045%=      5-min Rain = 0
KAHS 201555Z 23006KT 33/19 A3009 RMK A01 T03250190  RH  045%=      5-min Rain = 0
KAHS 201556Z 22006KT 33/19 A3009 RMK A01 T03270190  RH  044%=      5-min Rain = 0
KAHS 201557Z 23004KT 33/19 A3009 RMK A01 T03280189  RH  044%=      5-min Rain = 0
KAHS 201558Z 25008KT 33/19 A3009 RMK A01 T03280188  RH  044%=      5-min Rain = 0
KAHS 201559Z 25006KT 33/19 A3009 RMK A01 T03250188  RH  044%=      5-min Rain = 0
KAHS 201600Z 22005KT 32/19 A3009 RMK A01 T03230188  RH  045%=      5-min Rain = 0
KAHS 201601Z 23005KT 32/19 A3009 RMK A01 T03230189  RH  045%=      5-min Rain = 0
KAHS 201602Z 22007KT 33/19 A3009 RMK A01 T03260189  RH  044%=      5-min Rain = 0
KAHS 201603Z 21007KT 33/19 A3009 RMK A01 T03250188  RH  044%=      5-min Rain = 0
KAHS 201604Z 22007KT 32/19 A3009 RMK A01 T03240188  RH  044%=      5-min Rain = 0
KAHS 201605Z 21008KT 32/19 A3009 RMK A01 T03240189  RH  045%=      5-min Rain = 0
KAHS 201606Z 21006KT 33/19 A3009 RMK A01 T03250188  RH  044%=      5-min Rain = 0
KAHS 201607Z 22005KT 32/19 A3009 RMK A01 T03240188  RH  045%=      5-min Rain = 0
KAHS 201608Z 22004KT 32/19 A3009 RMK A01 T03230187  RH  044%=      5-min Rain = 0
KAHS 201609Z 24004KT 33/19 A3009 RMK A01 T03250189  RH  045%=      5-min Rain = 0
KAHS 201610Z 25006KT 33/19 A3009 RMK A01 T03270189  RH  044%=      5-min Rain = 0
KAHS 201611Z 21005KT 33/19 A3009 RMK A01 T03260187  RH  044%=      5-min Rain = 0
KAHS 201612Z 20003KT 33/19 A3009 RMK A01 T03250187  RH  044%=      5-min Rain = 0
KAHS 201613Z 19003KT 32/19 A3009 RMK A01 T03240187  RH  044%=      5-min Rain = 0
KAHS 201614Z 24004KT 33/19 A3009 RMK A01 T03250187  RH  044%=      5-min Rain = 0
KAHS 201615Z 24005KT 33/19 A3009 RMK A01 T03250188  RH  044%=      5-min Rain = 0
KAHS 201616Z 25006KT 33/19 A3008 RMK A01 T03270189  RH  044%=      5-min Rain = 0
KAHS 201617Z 26005KT 33/19 A3008 RMK A01 T03280187  RH  043%=      5-min Rain = 0
KAHS 201618Z 24006KT 33/19 A3008 RMK A01 T03280187  RH  043%=      5-min Rain = 0
KAHS 201619Z 25005KT 33/19 A3008 RMK A01 T03290186  RH  043%=      5-min Rain = 0
KAHS 201620Z 25004KT 33/19 A3008 RMK A01 T03320188  RH  043%=      5-min Rain = 0
KAHS 201621Z 22002KT 34/19 A3008 RMK A01 T03350186  RH  042%=      5-min Rain = 0
KAHS 201622Z 24005KT 33/19 A3008 RMK A01 T03330185  RH  042%=      5-min Rain = 0
KAHS 201623Z 23007KT 33/19 A3008 RMK A01 T03330186  RH  042%=      5-min Rain = 0
KAHS 201624Z 24004KT 33/18 A3008 RMK A01 T03300184  RH  042%=      5-min Rain = 0
KAHS 201625Z 23002KT 33/18 A3008 RMK A01 T03270184  RH  043%=      5-min Rain = 0
KAHS 201626Z 23007KT 33/19 A3008 RMK A01 T03260185  RH  043%=      5-min Rain = 0
KAHS 201627Z 22006KT 33/19 A3008 RMK A01 T03270186  RH  043%=      5-min Rain = 0
KAHS 201628Z 23005KT 33/19 A3009 RMK A01 T03280185  RH  043%=      5-min Rain = 0
KAHS 201629Z 23004KT 33/19 A3009 RMK A01 T03270185  RH  043%=      5-min Rain = 0
KAHS 201630Z 22005KT 33/19 A3009 RMK A01 T03260185  RH  043%=      5-min Rain = 0
KAHS 201631Z 21006KT 33/19 A3009 RMK A01 T03270186  RH  043%=      5-min Rain = 0
KAHS 201632Z 23006KT 33/18 A3009 RMK A01 T03260184  RH  043%=      5-min Rain = 0
KAHS 201633Z 26004KT 33/18 A3008 RMK A01 T03270182  RH  042%=      5-min Rain = 0
KAHS 201634Z 26003KT 33/18 A3008 RMK A01 T03270182  RH  042%=      5-min Rain = 0
KAHS 201635Z 17006KT 33/19 A3008 RMK A01 T03300185  RH  042%=      5-min Rain = 0
KAHS 201636Z 19004KT 33/18 A3008 RMK A01 T03310184  RH  042%=      5-min Rain = 0
KAHS 201637Z 27004KT 33/19 A3008 RMK A01 T03320186  RH  042%=      5-min Rain = 0
KAHS 201638Z 26004KT 33/19 A3008 RMK A01 T03320186  RH  042%=      5-min Rain = 0
KAHS 201639Z 25006KT 33/19 A3008 RMK A01 T03320185  RH  042%=      5-min Rain = 0
KAHS 201640Z 27004KT 33/19 A3008 RMK A01 T03300185  RH  042%=      5-min Rain = 0
KAHS 201641Z 26002KT 33/18 A3008 RMK A01 T03310184  RH  042%=      5-min Rain = 0
KAHS 201642Z 30003KT 33/18 A3008 RMK A01 T03300184  RH  042%=      5-min Rain = 0
KAHS 201643Z 25004KT 33/19 A3008 RMK A01 T03300186  RH  043%=      5-min Rain = 0
KAHS 201644Z 26005KT 33/19 A3008 RMK A01 T03300185  RH  042%=      5-min Rain = 0
KAHS 201645Z 28007KT 33/19 A3008 RMK A01 T03330187  RH  042%=      5-min Rain = 0
KAHS 201646Z 28006KT 33/18 A3008 RMK A01 T03330184  RH  041%=      5-min Rain = 0
KAHS 201647Z 31005KT 33/18 A3008 RMK A01 T03310184  RH  042%=      5-min Rain = 0
KAHS 201648Z 32004KT 33/18 A3008 RMK A01 T03320184  RH  042%=      5-min Rain = 0
KAHS 201649Z 26003KT 33/19 A3008 RMK A01 T03310186  RH  042%=      5-min Rain = 0
KAHS 201650Z 23004KT 34/19 A3008 RMK A01 T03350186  RH  041%=      5-min Rain = 0
KAHS 201651Z 19002KT 34/19 A3008 RMK A01 T03350185  RH  041%=      5-min Rain = 0
KAHS 201652Z 17003KT 34/18 A3008 RMK A01 T03350184  RH  041%=      5-min Rain = 0
KAHS 201653Z 18003KT 34/18 A3008 RMK A01 T03350180  RH  040%=      5-min Rain = 0
KAHS 201654Z 20002KT 34/18 A3008 RMK A01 T03360181  RH  040%=      5-min Rain = 0
KAHS 201655Z 18004KT 34/18 A3008 RMK A01 T03370182  RH  040%=      5-min Rain = 0
KAHS 201656Z 19003KT 34/18 A3008 RMK A01 T03370182  RH  040%=      5-min Rain = 0
KAHS 201657Z 21002KT 34/18 A3008 RMK A01 T03360181  RH  040%=      5-min Rain = 0
KAHS 201658Z 21006KT 34/18 A3008 RMK A01 T03370177  RH  039%=      5-min Rain = 0
KAHS 201659Z 22005KT 34/18 A3008 RMK A01 T03390178  RH  039%=      5-min Rain = 0
KAHS 201700Z 24007KT 34/18 A3008 RMK A01 T03420176  RH  038%=      5-min Rain = 0
KAHS 201701Z 25006KT 34/18 A3008 RMK A01 T03410176  RH  037%=      5-min Rain = 0
KAHS 201702Z 25005KT 34/17 A3008 RMK A01 T03410173  RH  037%=      5-min Rain = 0
KAHS 201703Z 25003KT 34/18 A3008 RMK A01 T03410175  RH  037%=      5-min Rain = 0
KAHS 201704Z 15006KT 35/18 A3008 RMK A01 T03450176  RH  037%=      5-min Rain = 0
KAHS 201705Z 16006KT 35/17 A3008 RMK A01 T03480170  RH  035%=      5-min Rain = 0
KAHS 201706Z 17006KT 35/17 A3008 RMK A01 T03480168  RH  035%=      5-min Rain = 0
KAHS 201707Z 18007KT 35/17 A3008 RMK A01 T03470173  RH  036%=      5-min Rain = 0
KAHS 201708Z 18007KT 35/17 A3008 RMK A01 T03490172  RH  035%=      5-min Rain = 0
KAHS 201709Z 19005KT 35/17 A3008 RMK A01 T03470169  RH  035%=      5-min Rain = 0
KAHS 201710Z 17005KT 35/17 A3008 RMK A01 T03450170  RH  035%=      5-min Rain = 0
KAHS 201711Z 17004KT 34/17 A3008 RMK A01 T03430169  RH  036%=      5-min Rain = 0
KAHS 201712Z 17003KT 34/17 A3008 RMK A01 T03430171  RH  036%=      5-min Rain = 0
KAHS 201713Z 17001KT 35/17 A3008 RMK A01 T03460171  RH  035%=      5-min Rain = 0
KAHS 201714Z 23001KT 35/17 A3008 RMK A01 T03470169  RH  035%=      5-min Rain = 0
KAHS 201715Z 20002KT 35/17 A3008 RMK A01 T03480170  RH  035%=      5-min Rain = 0
KAHS 201716Z 24004KT 35/17 A3008 RMK A01 T03490169  RH  035%=      5-min Rain = 0
KAHS 201717Z 23004KT 35/17 A3008 RMK A01 T03470169  RH  035%=      5-min Rain = 0
KAHS 201718Z 15003G8KT 35/17 A3008 RMK A01 T03470171  RH  035%=      5-min Rain = 0
KAHS 201719Z 13007KT 35/18 A3008 RMK A01 T03500176  RH  036%=      5-min Rain = 0
KAHS 201720Z 14008KT 35/18 A3008 RMK A01 T03530175  RH  035%=      5-min Rain = 0
KAHS 201721Z 13006KT 35/17 A3008 RMK A01 T03510174  RH  035%=      5-min Rain = 0
KAHS 201722Z 13006KT 35/18 A3008 RMK A01 T03500175  RH  035%=      5-min Rain = 0
KAHS 201723Z 13006KT 35/17 A3008 RMK A01 T03480174  RH  036%=      5-min Rain = 0
KAHS 201724Z 15006KT 35/18 A3008 RMK A01 T03490175  RH  036%=      5-min Rain = 0
KAHS 201725Z 14006KT 35/18 A3008 RMK A01 T03510177  RH  036%=      5-min Rain = 0
KAHS 201726Z 16004KT 35/17 A3008 RMK A01 T03510173  RH  035%=      5-min Rain = 0
KAHS 201727Z 14006KT 35/17 A3008 RMK A01 T03530173  RH  034%=      5-min Rain = 0
KAHS 201728Z 14009KT 35/17 A3008 RMK A01 T03540169  RH  034%=      5-min Rain = 0
KAHS 201729Z 14009KT 35/17 A3008 RMK A01 T03540171  RH  034%=      5-min Rain = 0
KAHS 201730Z 15009KT 36/17 A3008 RMK A01 T03550168  RH  033%=      5-min Rain = 0
KAHS 201731Z 13007KT 35/17 A3008 RMK A01 T03530167  RH  033%=      5-min Rain = 0
KAHS 201732Z 12007KT 35/17 A3008 RMK A01 T03510167  RH  034%=      5-min Rain = 0
KAHS 201733Z 11007KT 35/17 A3007 RMK A01 T03510170  RH  034%=      5-min Rain = 0
KAHS 201734Z 13008KT 35/17 A3007 RMK A01 T03510170  RH  034%=      5-min Rain = 0
KAHS 201735Z 14009KT 35/17 A3008 RMK A01 T03520169  RH  034%=      5-min Rain = 0
KAHS 201736Z 16008KT 35/17 A3008 RMK A01 T03510167  RH  034%=      5-min Rain = 0
KAHS 201737Z 16008KT 35/17 A3007 RMK A01 T03520171  RH  034%=      5-min Rain = 0
KAHS 201738Z 13010KT 35/17 A3007 RMK A01 T03540171  RH  034%=      5-min Rain = 0
KAHS 201739Z 15009KT 35/17 A3008 RMK A01 T03530170  RH  034%=      5-min Rain = 0
KAHS 201740Z 15008KT 35/17 A3008 RMK A01 T03530171  RH  034%=      5-min Rain = 0
KAHS 201741Z 16009KT 35/17 A3007 RMK A01 T03540169  RH  033%=      5-min Rain = 0
KAHS 201742Z 16006KT 35/17 A3007 RMK A01 T03510167  RH  033%=      5-min Rain = 0
KAHS 201743Z 12004KT 35/17 A3007 RMK A01 T03520169  RH  034%=      5-min Rain = 0
KAHS 201744Z 13007KT 35/17 A3007 RMK A01 T03540170  RH  034%=      5-min Rain = 0
KAHS 201745Z 11006KT 36/17 A3007 RMK A01 T03550170  RH  034%=      5-min Rain = 0
KAHS 201746Z 13010KT 35/17 A3007 RMK A01 T03540171  RH  034%=      5-min Rain = 0
KAHS 201747Z 15009KT 36/17 A3007 RMK A01 T03550171  RH  034%=      5-min Rain = 0
KAHS 201748Z 16009KT 36/17 A3007 RMK A01 T03550173  RH  034%=      5-min Rain = 0
KAHS 201749Z 16009KT 36/17 A3007 RMK A01 T03570173  RH  034%=      5-min Rain = 0
KAHS 201750Z 17009KT 36/17 A3007 RMK A01 T03560168  RH  033%=      5-min Rain = 0
KAHS 201751Z 16009KT 35/17 A3007 RMK A01 T03540168  RH  033%=      5-min Rain = 0
KAHS 201752Z 15007KT 35/17 A3007 RMK A01 T03520167  RH  033%=      5-min Rain = 0
KAHS 201753Z 17007KT 35/17 A3007 RMK A01 T03540169  RH  033%=      5-min Rain = 0
KAHS 201754Z 16007KT 35/17 A3007 RMK A01 T03530170  RH  034%=      5-min Rain = 0
KAHS 201755Z 16009KT 36/17 A3007 RMK A01 T03550169  RH  033%=      5-min Rain = 0
KAHS 201756Z 15006KT 35/17 A3007 RMK A01 T03540168  RH  033%=      5-min Rain = 0
KAHS 201757Z 16005KT 35/17 A3007 RMK A01 T03540167  RH  033%=      5-min Rain = 0
KAHS 201758Z 17006KT 35/17 A3007 RMK A01 T03540169  RH  034%=      5-min Rain = 0
KAHS 201759Z 18008KT 36/17 A3007 RMK A01 T03550172  RH  034%=      5-min Rain = 0
KAHS 201800Z 17007KT 36/17 A3007 RMK A01 T03580170  RH  033%=      5-min Rain = 0
KAHS 201801Z 18009KT 36/17 A3007 RMK A01 T03570166  RH  032%=      5-min Rain = 0
KAHS 201802Z 17007KT 36/17 A3007 RMK A01 T03580171  RH  033%=      5-min Rain = 0
KAHS 201803Z 17009KT 36/17 A3007 RMK A01 T03600168  RH  032%=      5-min Rain = 0
KAHS 201804Z 17008KT 36/17 A3007 RMK A01 T03570168  RH  033%=      5-min Rain = 0
KAHS 201805Z 16008KT 36/17 A3007 RMK A01 T03570171  RH  033%=      5-min Rain = 0
KAHS 201806Z 18009KT 36/17 A3007 RMK A01 T03550168  RH  033%=      5-min Rain = 0
KAHS 201807Z 18006KT 35/17 A3007 RMK A01 T03530171  RH  034%=      5-min Rain = 0
KAHS 201808Z 17007KT 35/17 A3007 RMK A01 T03540171  RH  034%=      5-min Rain = 0
KAHS 201809Z 15006KT 35/17 A3007 RMK A01 T03510170  RH  034%=      5-min Rain = 0
KAHS 201810Z 16005KT 35/17 A3007 RMK A01 T03520170  RH  034%=      5-min Rain = 0
KAHS 201811Z 18009KT 35/17 A3007 RMK A01 T03530171  RH  034%=      5-min Rain = 0
KAHS 201812Z 16009KT 35/17 A3007 RMK A01 T03540168  RH  033%=      5-min Rain = 0
KAHS 201813Z 16010KT 36/17 A3007 RMK A01 T03550170  RH  034%=      5-min Rain = 0
KAHS 201814Z 15011KT 36/17 A3007 RMK A01 T03560171  RH  033%=      5-min Rain = 0
KAHS 201815Z 16009KT 36/17 A3007 RMK A01 T03580171  RH  033%=      5-min Rain = 0
KAHS 201816Z 14009KT 36/17 A3007 RMK A01 T03580170  RH  033%=      5-min Rain = 0
KAHS 201817Z 17009KT 36/17 A3007 RMK A01 T03560167  RH  033%=      5-min Rain = 0
KAHS 201818Z 14009KT 35/17 A3007 RMK A01 T03530165  RH  033%=      5-min Rain = 0
KAHS 201819Z 13007KT 35/17 A3007 RMK A01 T03530167  RH  033%=      5-min Rain = 0
KAHS 201820Z 13005KT 36/17 A3007 RMK A01 T03560166  RH  032%=      5-min Rain = 0
KAHS 201821Z 12004KT 36/17 A3007 RMK A01 T03570165  RH  032%=      5-min Rain = 0
KAHS 201822Z 11005KT 36/17 A3007 RMK A01 T03570165  RH  032%=      5-min Rain = 0
KAHS 201823Z 12005KT 36/17 A3007 RMK A01 T03570166  RH  032%=      5-min Rain = 0
KAHS 201824Z 15007KT 36/16 A3007 RMK A01 T03590164  RH  031%=      5-min Rain = 0
KAHS 201825Z 16008KT 36/16 A3007 RMK A01 T03600157  RH  030%=      5-min Rain = 0
KAHS 201826Z 15007KT 36/16 A3007 RMK A01 T03590157  RH  030%=      5-min Rain = 0
KAHS 201827Z 16005KT 36/16 A3007 RMK A01 T03600155  RH  030%=      5-min Rain = 0
KAHS 201828Z 16004KT 36/16 A3007 RMK A01 T03610157  RH  030%=      5-min Rain = 0
KAHS 201829Z 13005KT 36/16 A3007 RMK A01 T03620156  RH  029%=      5-min Rain = 0
KAHS 201830Z 13007KT 36/16 A3006 RMK A01 T03590157  RH  030%=      5-min Rain = 0
KAHS 201831Z 17006KT 36/16 A3007 RMK A01 T03580163  RH  031%=      5-min Rain = 0
KAHS 201832Z 18002KT 36/16 A3006 RMK A01 T03550162  RH  032%=      5-min Rain = 0
KAHS 201833Z 11002G9KT 36/16 A3006 RMK A01 T03550164  RH  032%=      5-min Rain = 0
KAHS 201834Z 13009KT 36/17 A3006 RMK A01 T03600168  RH  032%=      5-min Rain = 0
KAHS 201835Z 13010KT 36/17 A3006 RMK A01 T03620167  RH  032%=      5-min Rain = 0
KAHS 201836Z 14007KT 36/17 A3007 RMK A01 T03600167  RH  032%=      5-min Rain = 0
KAHS 201837Z 14006KT 36/17 A3007 RMK A01 T03600167  RH  032%=      5-min Rain = 0
KAHS 201838Z 12002KT 36/17 A3007 RMK A01 T03580166  RH  032%=      5-min Rain = 0
KAHS 201839Z 13005G10KT 36/17 A3006 RMK A01 T03580167  RH  032%=      5-min Rain = 0
KAHS 201840Z 14008KT 36/17 A3007 RMK A01 T03600168  RH  032%=      5-min Rain = 0
KAHS 201841Z 13008KT 36/17 A3007 RMK A01 T03600168  RH  032%=      5-min Rain = 0
KAHS 201842Z 14008KT 36/16 A3007 RMK A01 T03570164  RH  032%=      5-min Rain = 0
KAHS 201843Z 16007KT 36/17 A3007 RMK A01 T03570167  RH  032%=      5-min Rain = 0
KAHS 201844Z 14008KT 36/17 A3007 RMK A01 T03580165  RH  032%=      5-min Rain = 0
KAHS 201845Z 14009KT 36/17 A3006 RMK A01 T03590165  RH  032%=      5-min Rain = 0
KAHS 201846Z 15006KT 36/16 A3006 RMK A01 T03610163  RH  031%=      5-min Rain = 0
KAHS 201847Z 15005KT 36/16 A3006 RMK A01 T03600159  RH  030%=      5-min Rain = 0
KAHS 201848Z 14007KT 36/16 A3006 RMK A01 T03600164  RH  031%=      5-min Rain = 0
KAHS 201849Z 17009KT 36/17 A3006 RMK A01 T03600166  RH  032%=      5-min Rain = 0
KAHS 201850Z 18008KT 36/17 A3006 RMK A01 T03610166  RH  032%=      5-min Rain = 0
KAHS 201851Z 16007KT 36/16 A3006 RMK A01 T03600164  RH  031%=      5-min Rain = 0
KAHS 201852Z 17005KT 36/16 A3006 RMK A01 T03600164  RH  031%=      5-min Rain = 0
KAHS 201853Z 17006KT 36/17 A3006 RMK A01 T03620165  RH  031%=      5-min Rain = 0
KAHS 201854Z 14004KT 36/16 A3006 RMK A01 T03620163  RH  031%=      5-min Rain = 0
KAHS 201855Z 14006KT 36/17 A3006 RMK A01 T03610166  RH  031%=      5-min Rain = 0
KAHS 201856Z 14008KT 37/17 A3006 RMK A01 T03660169  RH  031%=      5-min Rain = 0
KAHS 201857Z 17006KT 37/17 A3006 RMK A01 T03720168  RH  030%=      5-min Rain = 0
KAHS 201858Z 19007KT 37/16 A3006 RMK A01 T03710163  RH  029%=      5-min Rain = 0
KAHS 201859Z 18005KT 37/16 A3006 RMK A01 T03660162  RH  030%=      5-min Rain = 0
KAHS 201900Z 17004KT 37/16 A3006 RMK A01 T03650164  RH  031%=      5-min Rain = 0
KAHS 201901Z 18008KT 37/16 A3006 RMK A01 T03650163  RH  030%=      5-min Rain = 0
KAHS 201902Z 20008KT 36/16 A3006 RMK A01 T03640163  RH  031%=      5-min Rain = 0
KAHS 201903Z 21006KT 36/16 A3006 RMK A01 T03610163  RH  031%=      5-min Rain = 0
KAHS 201904Z 23003KT 36/16 A3006 RMK A01 T03620164  RH  031%=      5-min Rain = 0
KAHS 201905Z 25005KT 37/17 A3006 RMK A01 T03650165  RH  031%=      5-min Rain = 0
KAHS 201906Z 21002KT 37/16 A3006 RMK A01 T03650164  RH  031%=      5-min Rain = 0
KAHS 201907Z 13007G12KT 37/16 A3006 RMK A01 T03650163  RH  030%=      5-min Rain = 0
KAHS 201908Z 11008KT 37/16 A3005 RMK A01 T03660163  RH  030%=      5-min Rain = 0
KAHS 201909Z 11006KT 37/16 A3005 RMK A01 T03650161  RH  030%=      5-min Rain = 0
KAHS 201910Z 12007KT 36/16 A3005 RMK A01 T03640163  RH  030%=      5-min Rain = 0
KAHS 201911Z 12005KT 37/16 A3005 RMK A01 T03670163  RH  030%=      5-min Rain = 0
KAHS 201912Z 16006KT 37/17 A3005 RMK A01 T03700165  RH  030%=      5-min Rain = 0
KAHS 201913Z 18008KT 37/16 A3005 RMK A01 T03700162  RH  029%=      5-min Rain = 0
KAHS 201914Z 19006KT 37/16 A3005 RMK A01 T03670161  RH  029%=      5-min Rain = 0
KAHS 201915Z 19006KT 37/16 A3005 RMK A01 T03650161  RH  030%=      5-min Rain = 0
KAHS 201916Z 18007KT 37/16 A3005 RMK A01 T03660164  RH  030%=      5-min Rain = 0
KAHS 201917Z 17005KT 37/16 A3005 RMK A01 T03650161  RH  030%=      5-min Rain = 0
KAHS 201918Z 16007KT 37/16 A3005 RMK A01 T03650163  RH  030%=      5-min Rain = 0
KAHS 201919Z 19007KT 37/16 A3005 RMK A01 T03700164  RH  030%=      5-min Rain = 0
KAHS 201920Z 20005KT 37/16 A3005 RMK A01 T03720162  RH  029%=      5-min Rain = 0
KAHS 201921Z 20004KT 37/16 A3005 RMK A01 T03720161  RH  029%=      5-min Rain = 0
KAHS 201922Z 24004KT 37/16 A3005 RMK A01 T03700160  RH  029%=      5-min Rain = 0
KAHS 201923Z 23002KT 37/16 A3005 RMK A01 T03650160  RH  030%=      5-min Rain = 0
KAHS 201924Z 19006KT 37/16 A3005 RMK A01 T03650161  RH  030%=      5-min Rain = 0
KAHS 201925Z 21007KT 37/16 A3005 RMK A01 T03690162  RH  030%=      5-min Rain = 0
KAHS 201926Z 20007KT 37/16 A3005 RMK A01 T03720160  RH  029%=      5-min Rain = 0
KAHS 201927Z 19005KT 37/16 A3005 RMK A01 T03710157  RH  028%=      5-min Rain = 0
KAHS 201928Z 21003KT 37/16 A3005 RMK A01 T03690158  RH  029%=      5-min Rain = 0
KAHS 201929Z 18005KT 37/16 A3005 RMK A01 T03670158  RH  029%=      5-min Rain = 0
KAHS 201930Z 19006KT 37/16 A3005 RMK A01 T03670160  RH  029%=      5-min Rain = 0
KAHS 201931Z 17004KT 37/16 A3005 RMK A01 T03650158  RH  029%=      5-min Rain = 0
KAHS 201932Z 18005KT 37/16 A3005 RMK A01 T03660162  RH  030%=      5-min Rain = 0
KAHS 201933Z 19004KT 37/16 A3005 RMK A01 T03680160  RH  029%=      5-min Rain = 0
KAHS 201934Z 22001KT 37/16 A3005 RMK A01 T03660159  RH  029%=      5-min Rain = 0
KAHS 201935Z 17004KT 37/16 A3005 RMK A01 T03680163  RH  030%=      5-min Rain = 0
KAHS 201936Z 16008KT 37/16 A3005 RMK A01 T03710164  RH  029%=      5-min Rain = 0
KAHS 201937Z 16011KT 37/16 A3004 RMK A01 T03730162  RH  029%=      5-min Rain = 0
KAHS 201938Z 15009KT 37/16 A3004 RMK A01 T03720159  RH  028%=      5-min Rain = 0
KAHS 201939Z 16009KT 37/16 A3004 RMK A01 T03710160  RH  029%=      5-min Rain = 0
KAHS 201940Z 16010KT 37/16 A3004 RMK A01 T03700160  RH  029%=      5-min Rain = 0
KAHS 201941Z 16007KT 37/16 A3004 RMK A01 T03680160  RH  029%=      5-min Rain = 0
KAHS 201942Z 16002KT 37/16 A3004 RMK A01 T03680158  RH  029%=      5-min Rain = 0
KAHS 201943Z 15007KT 37/16 A3004 RMK A01 T03700160  RH  029%=      5-min Rain = 0
KAHS 201944Z 15010KT 37/16 A3004 RMK A01 T03720159  RH  028%=      5-min Rain = 0
KAHS 201945Z 13007KT 37/16 A3004 RMK A01 T03690156  RH  028%=      5-min Rain = 0
KAHS 201946Z 14007KT 37/16 A3004 RMK A01 T03690160  RH  029%=      5-min Rain = 0
KAHS 201947Z 13007KT 37/16 A3004 RMK A01 T03720158  RH  028%=      5-min Rain = 0
KAHS 201948Z 17007KT 37/16 A3004 RMK A01 T03710157  RH  028%=      5-min Rain = 0
KAHS 201949Z 16006KT 37/16 A3004 RMK A01 T03700157  RH  028%=      5-min Rain = 0
KAHS 201950Z 12006KT 37/16 A3004 RMK A01 T03710156  RH  028%=      5-min Rain = 0
KAHS 201951Z 15009KT 37/15 A3004 RMK A01 T03700153  RH  028%=      5-min Rain = 0
KAHS 201952Z 14005KT 37/15 A3004 RMK A01 T03710153  RH  027%=      5-min Rain = 0
KAHS 201953Z 13005KT 37/15 A3004 RMK A01 T03730152  RH  027%=      5-min Rain = 0
KAHS 201954Z 09005KT 37/15 A3004 RMK A01 T03720151  RH  027%=      5-min Rain = 0
KAHS 201955Z 08006KT 37/15 A3004 RMK A01 T03700151  RH  027%=      5-min Rain = 0
KAHS 201956Z 07006KT 37/15 A3004 RMK A01 T03710152  RH  027%=      5-min Rain = 0
KAHS 201957Z 12003KT 37/15 A3004 RMK A01 T03710151  RH  027%=      5-min Rain = 0
KAHS 201958Z 15003KT 37/15 A3004 RMK A01 T03720153  RH  027%=      5-min Rain = 0
KAHS 201959Z 17004KT 37/15 A3004 RMK A01 T03730150  RH  027%=      5-min Rain = 0
KAHS 202000Z 13009KT 37/16 A3004 RMK A01 T03730155  RH  027%=      5-min Rain = 0
KAHS 202001Z 14008KT 37/16 A3004 RMK A01 T03740160  RH  028%=      5-min Rain = 0
KAHS 202002Z 15010KT 38/16 A3004 RMK A01 T03750159  RH  028%=      5-min Rain = 0
KAHS 202003Z 15011KT 38/16 A3004 RMK A01 T03760159  RH  028%=      5-min Rain = 0
KAHS 202004Z 14011KT 38/16 A3004 RMK A01 T03760158  RH  028%=      5-min Rain = 0
KAHS 202005Z 14010KT 37/16 A3004 RMK A01 T03730157  RH  028%=      5-min Rain = 0
KAHS 202006Z 15009KT 37/16 A3004 RMK A01 T03720156  RH  028%=      5-min Rain = 0
KAHS 202007Z 12010KT 37/16 A3004 RMK A01 T03730157  RH  028%=      5-min Rain = 0
KAHS 202008Z 12008KT 37/16 A3003 RMK A01 T03710155  RH  028%=      5-min Rain = 0
KAHS 202009Z 16006KT 37/16 A3003 RMK A01 T03690156  RH  028%=      5-min Rain = 0
KAHS 202010Z 16005KT 37/15 A3003 RMK A01 T03700153  RH  028%=      5-min Rain = 0
KAHS 202011Z 13004KT 37/15 A3003 RMK A01 T03710153  RH  028%=      5-min Rain = 0
KAHS 202012Z 09005KT 37/15 A3003 RMK A01 T03740153  RH  027%=      5-min Rain = 0
KAHS 202013Z 14006KT 38/15 A3003 RMK A01 T03760153  RH  027%=      5-min Rain = 0
KAHS 202014Z 19005KT 38/15 A3003 RMK A01 T03750151  RH  026%=      5-min Rain = 0
KAHS 202015Z 16004KT 37/15 A3003 RMK A01 T03730152  RH  027%=      5-min Rain = 0
KAHS 202016Z 17007KT 37/15 A3003 RMK A01 T03740154  RH  027%=      5-min Rain = 0
KAHS 202017Z 16009KT 38/16 A3003 RMK A01 T03750155  RH  027%=      5-min Rain = 0
KAHS 202018Z 15008KT 38/15 A3003 RMK A01 T03750154  RH  027%=      5-min Rain = 0
KAHS 202019Z 15006KT 38/15 A3003 RMK A01 T03750153  RH  027%=      5-min Rain = 0
KAHS 202020Z 15006KT 38/15 A3003 RMK A01 T03750152  RH  027%=      5-min Rain = 0
KAHS 202021Z 15006KT 38/15 A3003 RMK A01 T03760150  RH  026%=      5-min Rain = 0
KAHS 202022Z 15004KT 38/15 A3003 RMK A01 T03790151  RH  026%=      5-min Rain = 0
KAHS 202023Z 19003KT 38/15 A3003 RMK A01 T03810152  RH  026%=      5-min Rain = 0
KAHS 202024Z 20003KT 38/15 A3003 RMK A01 T03790148  RH  025%=      5-min Rain = 0
KAHS 202025Z 18003KT 38/15 A3003 RMK A01 T03780149  RH  026%=      5-min Rain = 0
KAHS 202026Z 18006KT 38/15 A3003 RMK A01 T03800154  RH  026%=      5-min Rain = 0
KAHS 202027Z 19007KT 38/15 A3003 RMK A01 T03810152  RH  026%=      5-min Rain = 0
KAHS 202028Z 18009KT 38/15 A3003 RMK A01 T03790152  RH  026%=      5-min Rain = 0
KAHS 202029Z 18006KT 38/15 A3003 RMK A01 T03780152  RH  026%=      5-min Rain = 0
KAHS 202030Z 16004KT 38/15 A3003 RMK A01 T03780152  RH  026%=      5-min Rain = 0
KAHS 202031Z 13004KT 38/15 A3003 RMK A01 T03770151  RH  026%=      5-min Rain = 0
KAHS 202032Z 15007KT 38/15 A3003 RMK A01 T03780152  RH  026%=      5-min Rain = 0
KAHS 202033Z 15006KT 38/15 A3002 RMK A01 T03790153  RH  026%=      5-min Rain = 0
KAHS 202034Z 16003KT 38/15 A3003 RMK A01 T03800146  RH  025%=      5-min Rain = 0
KAHS 202035Z 17000KT 38/15 A3002 RMK A01 T03790145  RH  025%=      5-min Rain = 0
KAHS 202036Z 21001KT 38/15 A3002 RMK A01 T03790148  RH  026%=      5-min Rain = 0
KAHS 202037Z 15007KT 38/15 A3002 RMK A01 T03790150  RH  026%=      5-min Rain = 0
KAHS 202038Z 15007KT 38/15 A3002 RMK A01 T03800147  RH  025%=      5-min Rain = 0
KAHS 202039Z 12004KT 38/15 A3002 RMK A01 T03780147  RH  026%=      5-min Rain = 0
KAHS 202040Z 09001KT 38/15 A3002 RMK A01 T03750149  RH  026%=      5-min Rain = 0
KAHS 202041Z 01002KT 38/15 A3002 RMK A01 T03770152  RH  026%=      5-min Rain = 0
KAHS 202042Z 11001KT 38/15 A3002 RMK A01 T03790151  RH  026%=      5-min Rain = 0
KAHS 202043Z 18009KT 38/15 A3002 RMK A01 T03800150  RH  026%=      5-min Rain = 0
KAHS 202044Z 18008KT 38/15 A3002 RMK A01 T03790147  RH  025%=      5-min Rain = 0
KAHS 202045Z 16012KT 38/15 A3002 RMK A01 T03800147  RH  025%=      5-min Rain = 0
KAHS 202046Z 15010KT 38/14 A3002 RMK A01 T03810140  RH  024%=      5-min Rain = 0
KAHS 202047Z 17008KT 38/14 A3002 RMK A01 T03790137  RH  024%=      5-min Rain = 0
KAHS 202048Z 17008KT 38/14 A3002 RMK A01 T03780135  RH  024%=      5-min Rain = 0
KAHS 202049Z 16008KT 38/14 A3002 RMK A01 T03790139  RH  024%=      5-min Rain = 0
KAHS 202050Z 14004KT 38/14 A3002 RMK A01 T03830140  RH  024%=      5-min Rain = 0
KAHS 202051Z 18004KT 39/14 A3002 RMK A01 T03850143  RH  024%=      5-min Rain = 0
KAHS 202052Z 15004G9KT 39/14 A3001 RMK A01 T03870140  RH  023%=      5-min Rain = 0
KAHS 202053Z 17006KT 39/14 A3001 RMK A01 T03860137  RH  023%=      5-min Rain = 0
KAHS 202054Z 16006KT 38/14 A3001 RMK A01 T03840139  RH  023%=      5-min Rain = 0
KAHS 202055Z 15009KT 38/15 A3001 RMK A01 T03840145  RH  024%=      5-min Rain = 0
KAHS 202056Z 16006KT 38/15 A3001 RMK A01 T03830146  RH  025%=      5-min Rain = 0
KAHS 202057Z 14007KT 38/15 A3001 RMK A01 T03820147  RH  025%=      5-min Rain = 0
KAHS 202058Z 13007KT 38/15 A3001 RMK A01 T03810146  RH  025%=      5-min Rain = 0
KAHS 202059Z 13007KT 38/15 A3001 RMK A01 T03820146  RH  025%=      5-min Rain = 0
KAHS 202100Z 13006KT 38/15 A3001 RMK A01 T03810147  RH  025%=      5-min Rain = 0
KAHS 202101Z 12009KT 39/15 A3001 RMK A01 T03850146  RH  024%=      5-min Rain = 0
KAHS 202102Z 10007KT 38/14 A3001 RMK A01 T03820143  RH  024%=      5-min Rain = 0
KAHS 202103Z 11007KT 38/14 A3001 RMK A01 T03820144  RH  024%=      5-min Rain = 0
KAHS 202104Z 13008KT 38/14 A3001 RMK A01 T03810140  RH  024%=      5-min Rain = 0
KAHS 202105Z 13006KT 38/14 A3001 RMK A01 T03780142  RH  025%=      5-min Rain = 0
KAHS 202106Z 14008KT 38/15 A3001 RMK A01 T03820146  RH  025%=      5-min Rain = 0
KAHS 202107Z 14008KT 38/14 A3001 RMK A01 T03840144  RH  024%=      5-min Rain = 0
KAHS 202108Z 14009KT 38/15 A3001 RMK A01 T03830145  RH  024%=      5-min Rain = 0
KAHS 202109Z 14003G8KT 38/14 A3001 RMK A01 T03810143  RH  025%=      5-min Rain = 0
KAHS 202110Z 14005G11KT 38/14 A3001 RMK A01 T03800143  RH  025%=      5-min Rain = 0
KAHS 202111Z 15010KT 38/15 A3001 RMK A01 T03820146  RH  025%=      5-min Rain = 0
KAHS 202112Z 15009KT 39/15 A3001 RMK A01 T03860145  RH  024%=      5-min Rain = 0
KAHS 202113Z 16008KT 39/14 A3001 RMK A01 T03850144  RH  024%=      5-min Rain = 0
KAHS 202114Z 15007KT 38/14 A3001 RMK A01 T03840144  RH  024%=      5-min Rain = 0
KAHS 202115Z 14005KT 38/14 A3001 RMK A01 T03830143  RH  024%=      5-min Rain = 0
KAHS 202116Z 17004KT 38/15 A3001 RMK A01 T03830146  RH  025%=      5-min Rain = 0
KAHS 202117Z 18005KT 39/15 A30 RMK A01 T03850148  RH  025%=      5-min Rain = 0
KAHS 202118Z 20004KT 39/15 A3001 RMK A01 T03860147  RH  024%=      5-min Rain = 0
KAHS 202119Z 17005KT 39/15 A3001 RMK A01 T03850147  RH  024%=      5-min Rain = 0
KAHS 202120Z 13007KT 39/14 A3001 RMK A01 T03880144  RH  024%=      5-min Rain = 0
KAHS 202121Z 14008KT 39/13 A3001 RMK A01 T03860133  RH  022%=      5-min Rain = 0
KAHS 202122Z 15004KT 38/13 A30 RMK A01 T03820133  RH  023%=      5-min Rain = 0
KAHS 202123Z 14007KT 38/13 A30 RMK A01 T03820134  RH  023%=      5-min Rain = 0
KAHS 202124Z 14006KT 38/14 A30 RMK A01 T03830135  RH  023%=      5-min Rain = 0
KAHS 202125Z 14004KT 38/13 A30 RMK A01 T03820132  RH  023%=      5-min Rain = 0
KAHS 202126Z 14005KT 38/13 A30 RMK A01 T03810133  RH  023%=      5-min Rain = 0
KAHS 202127Z 15006KT 38/14 A30 RMK A01 T03810137  RH  024%=      5-min Rain = 0
KAHS 202128Z 16006KT 38/14 A30 RMK A01 T03820144  RH  024%=      5-min Rain = 0
KAHS 202129Z 20009KT 38/14 A30 RMK A01 T03840143  RH  024%=      5-min Rain = 0
KAHS 202130Z 17010KT 38/14 A30 RMK A01 T03830140  RH  024%=      5-min Rain = 0
KAHS 202131Z 16009KT 39/15 A30 RMK A01 T03850146  RH  024%=      5-min Rain = 0
KAHS 202132Z 16012KT 39/14 A30 RMK A01 T03870144  RH  024%=      5-min Rain = 0
KAHS 202133Z 15011KT 39/14 A30 RMK A01 T03850140  RH  023%=      5-min Rain = 0
KAHS 202134Z 15008KT 38/14 A30 RMK A01 T03830138  RH  023%=      5-min Rain = 0
KAHS 202135Z 14009KT 38/14 A30 RMK A01 T03810141  RH  024%=      5-min Rain = 0
KAHS 202136Z 14009KT 38/14 A30 RMK A01 T03810138  RH  024%=      5-min Rain = 0
KAHS 202137Z 14010KT 38/14 A30 RMK A01 T03800135  RH  023%=      5-min Rain = 0
KAHS 202138Z 15009KT 38/14 A30 RMK A01 T03810135  RH  023%=      5-min Rain = 0
KAHS 202139Z 13010KT 38/13 A30 RMK A01 T03830134  RH  023%=      5-min Rain = 0
KAHS 202140Z 12008KT 38/13 A30 RMK A01 T03810131  RH  023%=      5-min Rain = 0
KAHS 202141Z 15007KT 38/13 A30 RMK A01 T03780132  RH  023%=      5-min Rain = 0
KAHS 202142Z 13007KT 38/14 A30 RMK A01 T03800135  RH  023%=      5-min Rain = 0
KAHS 202143Z 11006KT 38/14 A30 RMK A01 T03810136  RH  023%=      5-min Rain = 0
KAHS 202144Z 10008KT 38/14 A30 RMK A01 T03840135  RH  023%=      5-min Rain = 0
KAHS 202145Z 11009KT 39/13 A30 RMK A01 T03860133  RH  022%=      5-min Rain = 0
KAHS 202146Z 11010KT 38/14 A30 RMK A01 T03830135  RH  023%=      5-min Rain = 0
KAHS 202147Z 14010KT 38/14 A30 RMK A01 T03840142  RH  024%=      5-min Rain = 0
KAHS 202148Z 15011KT 38/14 A30 RMK A01 T03820144  RH  024%=      5-min Rain = 0
KAHS 202149Z 15011KT 38/15 A30 RMK A01 T03820146  RH  025%=      5-min Rain = 0
KAHS 202150Z 14009KT 38/15 A30 RMK A01 T03830147  RH  025%=      5-min Rain = 0
KAHS 202151Z 14008KT 38/15 A30 RMK A01 T03810145  RH  025%=      5-min Rain = 0
KAHS 202152Z 13004KT 38/15 A30 RMK A01 T03770146  RH  025%=      5-min Rain = 0
KAHS 202153Z 15005KT 38/15 A30 RMK A01 T03770147  RH  026%=      5-min Rain = 0
KAHS 202154Z 13009KT 38/15 A30 RMK A01 T03790145  RH  025%=      5-min Rain = 0
KAHS 202155Z 16007KT 38/14 A2999 RMK A01 T03800144  RH  025%=      5-min Rain = 0
KAHS 202156Z 13008KT 38/14 A2999 RMK A01 T03810144  RH  025%=      5-min Rain = 0
KAHS 202157Z 13008KT 38/14 A2999 RMK A01 T03800137  RH  024%=      5-min Rain = 0
KAHS 202158Z 14009KT 38/14 A2999 RMK A01 T03800136  RH  023%=      5-min Rain = 0
KAHS 202159Z 14008KT 38/13 A2999 RMK A01 T03810131  RH  023%=      5-min Rain = 0
KAHS 202200Z 12006KT 38/13 A2999 RMK A01 T03800126  RH  022%=      5-min Rain = 0
KAHS 202201Z 14007KT 38/13 A2999 RMK A01 T03810129  RH  022%=      5-min Rain = 0
KAHS 202202Z 14004KT 38/13 A2999 RMK A01 T03840132  RH  022%=      5-min Rain = 0
KAHS 202203Z 12007KT 39/13 A2999 RMK A01 T03860130  RH  022%=      5-min Rain = 0
KAHS 202204Z 11008KT 39/13 A2999 RMK A01 T03850128  RH  022%=      5-min Rain = 0
KAHS 202205Z 11008KT 38/13 A2999 RMK A01 T03810126  RH  022%=      5-min Rain = 0
KAHS 202206Z 10005KT 38/13 A2999 RMK A01 T03790128  RH  022%=      5-min Rain = 0
KAHS 202207Z 11007KT 38/13 A2999 RMK A01 T03790125  RH  022%=      5-min Rain = 0
KAHS 202208Z 13008G13KT 38/13 A2999 RMK A01 T03780129  RH  023%=      5-min Rain = 0
KAHS 202209Z 16011KT 38/14 A2999 RMK A01 T03810136  RH  023%=      5-min Rain = 0
KAHS 202210Z 15010KT 38/14 A2999 RMK A01 T03810137  RH  023%=      5-min Rain = 0
KAHS 202211Z 16006KT 38/14 A2999 RMK A01 T03800136  RH  024%=      5-min Rain = 0
KAHS 202212Z 15007KT 38/14 A2999 RMK A01 T03810138  RH  024%=      5-min Rain = 0
KAHS 202213Z 15007KT 38/14 A2999 RMK A01 T03800137  RH  024%=      5-min Rain = 0
KAHS 202214Z 16007KT 38/14 A2999 RMK A01 T03820139  RH  024%=      5-min Rain = 0
KAHS 202215Z 14007KT 38/14 A2999 RMK A01 T03840135  RH  023%=      5-min Rain = 0
KAHS 202216Z 17006KT 39/13 A2999 RMK A01 T03870134  RH  022%=      5-min Rain = 0
KAHS 202217Z 17008KT 39/13 A2999 RMK A01 T03890128  RH  021%=      5-min Rain = 0
KAHS 202218Z 16008KT 39/13 A2999 RMK A01 T03860126  RH  021%=      5-min Rain = 0
KAHS 202219Z 15004KT 39/12 A2999 RMK A01 T03850123  RH  021%=      5-min Rain = 0
KAHS 202220Z 18004KT 38/12 A2999 RMK A01 T03830124  RH  021%=      5-min Rain = 0
KAHS 202221Z 16004KT 38/13 A2999 RMK A01 T03810126  RH  022%=      5-min Rain = 0
KAHS 202222Z 16007KT 38/13 A2999 RMK A01 T03790128  RH  022%=      5-min Rain = 0
KAHS 202223Z 14007KT 38/13 A2999 RMK A01 T03760132  RH  023%=      5-min Rain = 0
KAHS 202224Z 14008KT 37/14 A2999 RMK A01 T03730135  RH  024%=      5-min Rain = 0
KAHS 202225Z 14007KT 37/14 A2999 RMK A01 T03740135  RH  024%=      5-min Rain = 0
KAHS 202226Z 15011KT 37/14 A2999 RMK A01 T03740135  RH  024%=      5-min Rain = 0
KAHS 202227Z 15010KT 37/13 A2999 RMK A01 T03740133  RH  024%=      5-min Rain = 0
KAHS 202228Z 15011KT 37/13 A2999 RMK A01 T03730134  RH  024%=      5-min Rain = 0
KAHS 202229Z 14009KT 37/14 A2999 RMK A01 T03720136  RH  025%=      5-min Rain = 0
KAHS 202230Z 13009KT 37/13 A2999 RMK A01 T03710132  RH  024%=      5-min Rain = 0
KAHS 202231Z 14007KT 37/13 A2999 RMK A01 T03730134  RH  024%=      5-min Rain = 0
KAHS 202232Z 14006KT 38/14 A2999 RMK A01 T03750137  RH  024%=      5-min Rain = 0
KAHS 202233Z 15005KT 38/14 A2999 RMK A01 T03800140  RH  024%=      5-min Rain = 0
KAHS 202234Z 13006KT 38/14 A2999 RMK A01 T03840136  RH  023%=      5-min Rain = 0
KAHS 202235Z 14005KT 38/13 A2999 RMK A01 T03830134  RH  023%=      5-min Rain = 0
KAHS 202236Z 17006KT 38/13 A2999 RMK A01 T03820132  RH  023%=      5-min Rain = 0
KAHS 202237Z 16004KT 38/13 A2999 RMK A01 T03820134  RH  023%=      5-min Rain = 0
KAHS 202238Z 13003KT 38/14 A2999 RMK A01 T03820136  RH  023%=      5-min Rain = 0
KAHS 202239Z 11007KT 38/14 A2999 RMK A01 T03810139  RH  024%=      5-min Rain = 0
KAHS 202240Z 13006KT 38/14 A2998 RMK A01 T03800143  RH  025%=      5-min Rain = 0
KAHS 202241Z 15009KT 38/15 A2999 RMK A01 T03790145  RH  025%=      5-min Rain = 0
KAHS 202242Z 17011KT 38/15 A2998 RMK A01 T03790145  RH  025%=      5-min Rain = 0
KAHS 202243Z 18007KT 38/15 A2998 RMK A01 T03770145  RH  025%=      5-min Rain = 0
KAHS 202244Z 21008KT 37/14 A2998 RMK A01 T03720143  RH  026%=      5-min Rain = 0
KAHS 202245Z 22007KT 37/14 A2998 RMK A01 T03690143  RH  026%=      5-min Rain = 0
KAHS 202246Z 22006KT 37/14 A2998 RMK A01 T03690143  RH  026%=      5-min Rain = 0
KAHS 202247Z 21006KT 37/14 A2998 RMK A01 T03720143  RH  026%=      5-min Rain = 0
KAHS 202248Z 17007KT 38/15 A2998 RMK A01 T03750145  RH  025%=      5-min Rain = 0
KAHS 202249Z 16007KT 38/15 A2998 RMK A01 T03790145  RH  025%=      5-min Rain = 0
KAHS 202250Z 16009KT 38/14 A2998 RMK A01 T03810144  RH  025%=      5-min Rain = 0
KAHS 202251Z 15011KT 38/14 A2998 RMK A01 T03800140  RH  024%=      5-min Rain = 0
KAHS 202252Z 15010KT 38/14 A2998 RMK A01 T03790138  RH  024%=      5-min Rain = 0
KAHS 202253Z 15006KT 38/14 A2998 RMK A01 T03780138  RH  024%=      5-min Rain = 0
KAHS 202254Z 15004KT 38/14 A2998 RMK A01 T03780138  RH  024%=      5-min Rain = 0
KAHS 202255Z 18007KT 38/14 A2998 RMK A01 T03790140  RH  024%=      5-min Rain = 0
KAHS 202256Z 18007KT 38/14 A2998 RMK A01 T03800142  RH  024%=      5-min Rain = 0
KAHS 202257Z 14007G12KT 38/14 A2998 RMK A01 T03820142  RH  024%=      5-min Rain = 0
KAHS 202258Z 17008KT 38/14 A2998 RMK A01 T03810140  RH  024%=      5-min Rain = 0
KAHS 202259Z 18008KT 38/14 A2998 RMK A01 T03800140  RH  024%=      5-min Rain = 0
KAHS 202300Z 16009KT 38/14 A2998 RMK A01 T03790140  RH  024%=      5-min Rain = 0
KAHS 202301Z 15008KT 38/14 A2998 RMK A01 T03810142  RH  024%=      5-min Rain = 0
KAHS 202302Z 16009KT 38/14 A2998 RMK A01 T03820141  RH  024%=      5-min Rain = 0
KAHS 202303Z 15007KT 38/14 A2998 RMK A01 T03830141  RH  024%=      5-min Rain = 0
KAHS 202304Z 16009KT 38/14 A2998 RMK A01 T03820140  RH  024%=      5-min Rain = 0
KAHS 202305Z 15007KT 38/14 A2998 RMK A01 T03810141  RH  024%=      5-min Rain = 0
KAHS 202306Z 15007KT 38/14 A2998 RMK A01 T03790141  RH  024%=      5-min Rain = 0
KAHS 202307Z 12009KT 38/14 A2998 RMK A01 T03760137  RH  024%=      5-min Rain = 0
KAHS 202308Z 13008KT 37/13 A2998 RMK A01 T03740134  RH  024%=      5-min Rain = 0
KAHS 202309Z 13006KT 38/14 A2998 RMK A01 T03770137  RH  024%=      5-min Rain = 0
KAHS 202310Z 14008KT 38/13 A2998 RMK A01 T03790134  RH  023%=      5-min Rain = 0
KAHS 202311Z 12008KT 38/13 A2998 RMK A01 T03790132  RH  023%=      5-min Rain = 0
KAHS 202312Z 12009KT 38/13 A2998 RMK A01 T03780130  RH  023%=      5-min Rain = 0
KAHS 202313Z 12011KT 38/13 A2998 RMK A01 T03770128  RH  023%=      5-min Rain = 0
KAHS 202314Z 12008KT 38/13 A2998 RMK A01 T03770130  RH  023%=      5-min Rain = 0
KAHS 202315Z 13008KT 38/13 A2998 RMK A01 T03790131  RH  023%=      5-min Rain = 0
KAHS 202316Z 15008KT 38/13 A2998 RMK A01 T03800131  RH  023%=      5-min Rain = 0
KAHS 202317Z 17008KT 38/13 A2998 RMK A01 T03800128  RH  022%=      5-min Rain = 0
KAHS 202318Z 17006KT 38/13 A2998 RMK A01 T03780130  RH  023%=      5-min Rain = 0
KAHS 202319Z 19004KT 38/13 A2998 RMK A01 T03780129  RH  023%=      5-min Rain = 0
KAHS 202320Z 17006KT 38/13 A2998 RMK A01 T03760129  RH  023%=      5-min Rain = 0
KAHS 202321Z 13008KT 38/13 A2998 RMK A01 T03760132  RH  023%=      5-min Rain = 0
KAHS 202322Z 14007KT 38/13 A2998 RMK A01 T03750134  RH  024%=      5-min Rain = 0
KAHS 202323Z 15008KT 38/14 A2998 RMK A01 T03760139  RH  024%=      5-min Rain = 0
KAHS 202324Z 14009KT 38/14 A2998 RMK A01 T03770141  RH  025%=      5-min Rain = 0
KAHS 202325Z 14012KT 38/14 A2998 RMK A01 T03760137  RH  024%=      5-min Rain = 0
KAHS 202326Z 14012KT 37/14 A2998 RMK A01 T03740138  RH  024%=      5-min Rain = 0
KAHS 202327Z 14011KT 37/14 A2998 RMK A01 T03740137  RH  024%=      5-min Rain = 0
KAHS 202328Z 14009KT 38/14 A2998 RMK A01 T03750135  RH  024%=      5-min Rain = 0
KAHS 202329Z 16008KT 37/14 A2998 RMK A01 T03740135  RH  024%=      5-min Rain = 0
KAHS 202330Z 15008KT 38/14 A2998 RMK A01 T03750136  RH  024%=      5-min Rain = 0
KAHS 202331Z 15007KT 38/14 A2998 RMK A01 T03750137  RH  024%=      5-min Rain = 0
KAHS 202332Z 16006KT 38/14 A2998 RMK A01 T03750135  RH  024%=      5-min Rain = 0
KAHS 202333Z 17007KT 37/14 A2998 RMK A01 T03740136  RH  024%=      5-min Rain = 0
KAHS 202334Z 16008KT 37/14 A2998 RMK A01 T03740136  RH  024%=      5-min Rain = 0
KAHS 202335Z 16007KT 37/14 A2998 RMK A01 T03740137  RH  024%=      5-min Rain = 0
KAHS 202336Z 16008KT 37/14 A2998 RMK A01 T03740137  RH  024%=      5-min Rain = 0
KAHS 202337Z 14008KT 37/14 A2998 RMK A01 T03740135  RH  024%=      5-min Rain = 0
KAHS 202338Z 15007KT 37/13 A2998 RMK A01 T03730134  RH  024%=      5-min Rain = 0
KAHS 202339Z 15007KT 37/13 A2998 RMK A01 T03730134  RH  024%=      5-min Rain = 0
KAHS 202340Z 16008KT 37/14 A2998 RMK A01 T03740135  RH  024%=      5-min Rain = 0
KAHS 202341Z 17008KT 37/14 A2998 RMK A01 T03730136  RH  024%=      5-min Rain = 0
KAHS 202342Z 16010KT 37/14 A2998 RMK A01 T03720135  RH  024%=      5-min Rain = 0
KAHS 202343Z 16009KT 37/13 A2998 RMK A01 T03710133  RH  024%=      5-min Rain = 0
KAHS 202344Z 17011KT 37/14 A2998 RMK A01 T03700136  RH  025%=      5-min Rain = 0
KAHS 202345Z 16010KT 37/14 A2998 RMK A01 T03690138  RH  025%=      5-min Rain = 0
KAHS 202346Z 17007KT 37/14 A2998 RMK A01 T03690138  RH  025%=      5-min Rain = 0
KAHS 202347Z 19008KT 37/14 A2998 RMK A01 T03700140  RH  025%=      5-min Rain = 0
KAHS 202348Z 19008KT 37/14 A2998 RMK A01 T03700141  RH  026%=      5-min Rain = 0
KAHS 202349Z 17010KT 37/14 A2998 RMK A01 T03710142  RH  026%=      5-min Rain = 0
KAHS 202350Z 16011KT 37/15 A2998 RMK A01 T03720145  RH  026%=      5-min Rain = 0
KAHS 202351Z 16009KT 37/15 A2998 RMK A01 T03730147  RH  026%=      5-min Rain = 0
KAHS 202352Z 16011KT 37/14 A2998 RMK A01 T03730144  RH  026%=      5-min Rain = 0
KAHS 202353Z 15013KT 37/14 A2998 RMK A01 T03700144  RH  026%=      5-min Rain = 0
KAHS 202354Z 15009KT 37/14 A2998 RMK A01 T03700142  RH  026%=      5-min Rain = 0
KAHS 202355Z 16009KT 37/14 A2998 RMK A01 T03700139  RH  025%=      5-min Rain = 0
KAHS 202356Z 16007KT 37/14 A2998 RMK A01 T03690139  RH  025%=      5-min Rain = 0
KAHS 202357Z 15010KT 37/14 A2998 RMK A01 T03700140  RH  025%=      5-min Rain = 0
KAHS 202358Z 15007KT 37/14 A2998 RMK A01 T03700140  RH  025%=      5-min Rain = 0
KAHS 202359Z 15006KT 37/14 A2998 RMK A01 T03700142  RH  026%=      5-min Rain = 0
KAHS 210000Z 16009KT 37/14 A2998 RMK A01 T03710143  RH  026%=      5-min Rain = 0
KAHS 210001Z 14007KT 37/14 A2998 RMK A01 T03700143  RH  026%=      5-min Rain = 0
KAHS 210002Z 15007KT 37/15 A2998 RMK A01 T03690145  RH  026%=      5-min Rain = 0
KAHS 210003Z 15008KT 37/14 A2998 RMK A01 T03690144  RH  026%=      5-min Rain = 0
KAHS 210004Z 16006KT 37/15 A2998 RMK A01 T03690146  RH  027%=      5-min Rain = 0
KAHS 210005Z 16008KT 37/15 A2998 RMK A01 T03690147  RH  027%=      5-min Rain = 0
KAHS 210006Z 16009KT 37/15 A2998 RMK A01 T03690147  RH  027%=      5-min Rain = 0
KAHS 210007Z 15009KT 37/15 A2999 RMK A01 T03680150  RH  027%=      5-min Rain = 0
KAHS 210008Z 15009KT 37/15 A2998 RMK A01 T03660151  RH  028%=      5-min Rain = 0
KAHS 210009Z 16007KT 37/15 A2999 RMK A01 T03660153  RH  028%=      5-min Rain = 0
KAHS 210010Z 15009KT 37/15 A2999 RMK A01 T03660150  RH  028%=      5-min Rain = 0
KAHS 210011Z 15007KT 37/15 A2999 RMK A01 T03660146  RH  027%=      5-min Rain = 0
KAHS 210012Z 15009KT 37/15 A2999 RMK A01 T03660145  RH  027%=      5-min Rain = 0
KAHS 210013Z 15009KT 36/15 A2999 RMK A01 T03640146  RH  027%=      5-min Rain = 0
KAHS 210014Z 15011KT 36/15 A2999 RMK A01 T03640149  RH  028%=      5-min Rain = 0
KAHS 210015Z 14007KT 36/15 A2999 RMK A01 T03630151  RH  028%=      5-min Rain = 0
KAHS 210016Z 15007KT 36/15 A2999 RMK A01 T03640150  RH  028%=      5-min Rain = 0
KAHS 210017Z 15008KT 37/15 A2999 RMK A01 T03650150  RH  028%=      5-min Rain = 0
KAHS 210018Z 16007KT 36/15 A2999 RMK A01 T03640149  RH  028%=      5-min Rain = 0
KAHS 210019Z 16008KT 37/15 A2998 RMK A01 T03650148  RH  028%=      5-min Rain = 0
KAHS 210020Z 16008KT 36/15 A2998 RMK A01 T03640147  RH  028%=      5-min Rain = 0
KAHS 210021Z 16007KT 36/15 A2998 RMK A01 T03630146  RH  027%=      5-min Rain = 0
KAHS 210022Z 15006KT 36/15 A2998 RMK A01 T03630146  RH  027%=      5-min Rain = 0
KAHS 210023Z 15007KT 36/15 A2998 RMK A01 T03630145  RH  027%=      5-min Rain = 0
KAHS 210024Z 16006KT 36/15 A2998 RMK A01 T03640145  RH  027%=      5-min Rain = 0
KAHS 210025Z 17009KT 36/15 A2998 RMK A01 T03630145  RH  027%=      5-min Rain = 0
KAHS 210026Z 17009KT 36/15 A2998 RMK A01 T03620145  RH  027%=      5-min Rain = 0
KAHS 210027Z 16008KT 36/15 A2998 RMK A01 T03630145  RH  027%=      5-min Rain = 0
KAHS 210028Z 15009KT 36/15 A2998 RMK A01 T03630146  RH  028%=      5-min Rain = 0
KAHS 210029Z 15009KT 36/15 A2998 RMK A01 T03610150  RH  029%=      5-min Rain = 0
KAHS 210030Z 15008KT 36/16 A2998 RMK A01 T03600155  RH  030%=      5-min Rain = 0
KAHS 210031Z 15011KT 36/16 A2998 RMK A01 T03590156  RH  030%=      5-min Rain = 0
KAHS 210032Z 15009KT 36/16 A2998 RMK A01 T03580156  RH  030%=      5-min Rain = 0
KAHS 210033Z 14008KT 36/16 A2998 RMK A01 T03580157  RH  030%=      5-min Rain = 0
KAHS 210034Z 15009KT 36/16 A2998 RMK A01 T03580156  RH  030%=      5-min Rain = 0
KAHS 210035Z 15011KT 36/15 A2998 RMK A01 T03570153  RH  030%=      5-min Rain = 0
KAHS 210036Z 14011KT 36/15 A2999 RMK A01 T03570152  RH  030%=      5-min Rain = 0
KAHS 210037Z 15011KT 36/15 A2998 RMK A01 T03560149  RH  029%=      5-min Rain = 0
KAHS 210038Z 15009KT 36/15 A2998 RMK A01 T03560150  RH  029%=      5-min Rain = 0
KAHS 210039Z 15011KT 36/15 A2999 RMK A01 T03560151  RH  029%=      5-min Rain = 0
KAHS 210040Z 15010KT 36/15 A2999 RMK A01 T03560152  RH  030%=      5-min Rain = 0
KAHS 210041Z 14009KT 36/15 A2999 RMK A01 T03550153  RH  030%=      5-min Rain = 0
KAHS 210042Z 16010KT 35/16 A2999 RMK A01 T03540155  RH  030%=      5-min Rain = 0
KAHS 210043Z 15010KT 35/16 A2999 RMK A01 T03540156  RH  031%=      5-min Rain = 0
KAHS 210044Z 15010KT 35/16 A2999 RMK A01 T03530157  RH  031%=      5-min Rain = 0
KAHS 210045Z 15010KT 35/16 A2999 RMK A01 T03520157  RH  031%=      5-min Rain = 0
KAHS 210046Z 15009KT 35/16 A2999 RMK A01 T03520158  RH  032%=      5-min Rain = 0
KAHS 210047Z 16009KT 35/16 A2999 RMK A01 T03510159  RH  032%=      5-min Rain = 0
KAHS 210048Z 15010KT 35/16 A2999 RMK A01 T03500157  RH  032%=      5-min Rain = 0
KAHS 210049Z 15008KT 35/16 A2999 RMK A01 T03500156  RH  031%=      5-min Rain = 0
KAHS 210050Z 15007KT 35/16 A2999 RMK A01 T03490159  RH  032%=      5-min Rain = 0
KAHS 210051Z 14008KT 35/16 A2999 RMK A01 T03480159  RH  032%=      5-min Rain = 0
KAHS 210052Z 14009KT 35/16 A2999 RMK A01 T03470157  RH  032%=      5-min Rain = 0
KAHS 210053Z 14008KT 35/16 A2999 RMK A01 T03470157  RH  032%=      5-min Rain = 0
KAHS 210054Z 15007KT 35/16 A2999 RMK A01 T03460156  RH  032%=      5-min Rain = 0
KAHS 210055Z 14008KT 35/16 A2999 RMK A01 T03460156  RH  032%=      5-min Rain = 0
KAHS 210056Z 14007KT 35/15 A2999 RMK A01 T03460153  RH  032%=      5-min Rain = 0
KAHS 210057Z 15009KT 35/16 A2999 RMK A01 T03450155  RH  032%=      5-min Rain = 0
KAHS 210058Z 15010KT 35/15 A2999 RMK A01 T03450154  RH  032%=      5-min Rain = 0
KAHS 210059Z 14009KT 35/15 A2999 RMK A01 T03450152  RH  032%=      5-min Rain = 0
KAHS 210100Z 14008KT 35/15 A2999 RMK A01 T03450152  RH  031%=      5-min Rain = 0
KAHS 210101Z 14007KT 35/15 A2999 RMK A01 T03450152  RH  032%=      5-min Rain = 0
KAHS 210102Z 14009KT 34/15 A2999 RMK A01 T03440151  RH  032%=      5-min Rain = 0
KAHS 210103Z 14009KT 34/15 A2999 RMK A01 T03440150  RH  031%=      5-min Rain = 0
KAHS 210104Z 14008KT 34/15 A2999 RMK A01 T03440151  RH  032%=      5-min Rain = 0
KAHS 210105Z 15007KT 34/15 A2999 RMK A01 T03440152  RH  032%=      5-min Rain = 0
KAHS 210106Z 14007KT 34/15 A2999 RMK A01 T03430152  RH  032%=      5-min Rain = 0
KAHS 210107Z 14007G12KT 34/15 A2999 RMK A01 T03430152  RH  032%=      5-min Rain = 0
KAHS 210108Z 14009KT 34/15 A2999 RMK A01 T03420151  RH  032%=      5-min Rain = 0
KAHS 210109Z 14008KT 34/15 A2999 RMK A01 T03420152  RH  032%=      5-min Rain = 0
KAHS 210110Z 15007KT 34/15 A2999 RMK A01 T03420154  RH  033%=      5-min Rain = 0
KAHS 210111Z 15007KT 34/16 A2999 RMK A01 T03410157  RH  033%=      5-min Rain = 0
KAHS 210112Z 14008KT 34/16 A2999 RMK A01 T03400158  RH  034%=      5-min Rain = 0
KAHS 210113Z 15008KT 34/16 A2999 RMK A01 T03390160  RH  034%=      5-min Rain = 0
KAHS 210114Z 15007KT 34/16 A2999 RMK A01 T03390161  RH  035%=      5-min Rain = 0
KAHS 210115Z 15007KT 34/16 A30 RMK A01 T03380162  RH  035%=      5-min Rain = 0
KAHS 210116Z 15007KT 34/16 A30 RMK A01 T03380161  RH  035%=      5-min Rain = 0
KAHS 210117Z 15008KT 34/16 A30 RMK A01 T03370160  RH  035%=      5-min Rain = 0
KAHS 210118Z 14007KT 34/16 A30 RMK A01 T03370157  RH  034%=      5-min Rain = 0
KAHS 210119Z 14008KT 34/16 A30 RMK A01 T03370157  RH  034%=      5-min Rain = 0
KAHS 210120Z 14007KT 34/16 A30 RMK A01 T03370155  RH  034%=      5-min Rain = 0
KAHS 210121Z 14007KT 34/15 A30 RMK A01 T03370154  RH  033%=      5-min Rain = 0
KAHS 210122Z 15007KT 34/15 A30 RMK A01 T03370154  RH  033%=      5-min Rain = 0
KAHS 210123Z 14007KT 34/15 A30 RMK A01 T03370153  RH  033%=      5-min Rain = 0
KAHS 210124Z 15007KT 34/15 A30 RMK A01 T03360153  RH  033%=      5-min Rain = 0
KAHS 210125Z 14007KT 34/15 A30 RMK A01 T03360153  RH  033%=      5-min Rain = 0
KAHS 210126Z 15008KT 34/15 A30 RMK A01 T03360153  RH  033%=      5-min Rain = 0
KAHS 210127Z 14007KT 34/15 A30 RMK A01 T03350153  RH  034%=      5-min Rain = 0
KAHS 210128Z 14006KT 34/15 A30 RMK A01 T03350154  RH  034%=      5-min Rain = 0
KAHS 210129Z 15007KT 33/15 A30 RMK A01 T03340154  RH  034%=      5-min Rain = 0
KAHS 210130Z 15007KT 33/16 A30 RMK A01 T03340155  RH  034%=      5-min Rain = 0
KAHS 210131Z 15008KT 33/16 A30 RMK A01 T03340155  RH  034%=      5-min Rain = 0
KAHS 210132Z 14006KT 33/16 A30 RMK A01 T03330156  RH  035%=      5-min Rain = 0
KAHS 210133Z 14006KT 33/16 A30 RMK A01 T03330157  RH  035%=      5-min Rain = 0
KAHS 210134Z 15006KT 33/16 A30 RMK A01 T03320158  RH  035%=      5-min Rain = 0
KAHS 210135Z 15006KT 33/16 A30 RMK A01 T03310160  RH  036%=      5-min Rain = 0
KAHS 210136Z 15008KT 33/16 A30 RMK A01 T03300160  RH  036%=      5-min Rain = 0
KAHS 210137Z 15007KT 33/16 A30 RMK A01 T03300160  RH  036%=      5-min Rain = 0
KAHS 210138Z 15006KT 33/16 A30 RMK A01 T03300161  RH  036%=      5-min Rain = 0
KAHS 210139Z 15005KT 33/16 A3001 RMK A01 T03290162  RH  037%=      5-min Rain = 0
KAHS 210140Z 15007KT 33/16 A3001 RMK A01 T03280162  RH  037%=      5-min Rain = 0
KAHS 210141Z 15006KT 33/16 A3001 RMK A01 T03280162  RH  037%=      5-min Rain = 0
KAHS 210142Z 15005KT 33/16 A3001 RMK A01 T03270162  RH  037%=      5-min Rain = 0
KAHS 210143Z 14005KT 33/16 A3001 RMK A01 T03260161  RH  037%=      5-min Rain = 0
KAHS 210144Z 15005KT 33/16 A3001 RMK A01 T03260162  RH  037%=      5-min Rain = 0
KAHS 210145Z 15005KT 33/16 A3001 RMK A01 T03250161  RH  037%=      5-min Rain = 0
KAHS 210146Z 15006KT 33/16 A3001 RMK A01 T03250159  RH  037%=      5-min Rain = 0
KAHS 210147Z 15006KT 33/16 A3001 RMK A01 T03250160  RH  037%=      5-min Rain = 0
KAHS 210148Z 15006KT 32/16 A3001 RMK A01 T03240160  RH  037%=      5-min Rain = 0
KAHS 210149Z 15006KT 32/16 A3001 RMK A01 T03240161  RH  037%=      5-min Rain = 0
KAHS 210150Z 15007KT 32/16 A3001 RMK A01 T03240161  RH  037%=      5-min Rain = 0
KAHS 210151Z 15006KT 32/16 A3001 RMK A01 T03240160  RH  037%=      5-min Rain = 0
KAHS 210152Z 15006KT 32/16 A3001 RMK A01 T03240160  RH  037%=      5-min Rain = 0
KAHS 210153Z 15007KT 32/16 A3001 RMK A01 T03240160  RH  037%=      5-min Rain = 0
KAHS 210154Z 15005KT 32/16 A3001 RMK A01 T03230160  RH  038%=      5-min Rain = 0
KAHS 210155Z 15006KT 32/16 A3001 RMK A01 T03230161  RH  038%=      5-min Rain = 0
KAHS 210156Z 14006KT 32/16 A3001 RMK A01 T03220161  RH  038%=      5-min Rain = 0
KAHS 210157Z 14006KT 32/16 A3001 RMK A01 T03220161  RH  038%=      5-min Rain = 0
KAHS 210158Z 15005KT 32/16 A3001 RMK A01 T03210161  RH  038%=      5-min Rain = 0
KAHS 210159Z 15006KT 32/16 A3001 RMK A01 T03200161  RH  038%=      5-min Rain = 0
KAHS 210200Z 15006KT 32/16 A3001 RMK A01 T03200161  RH  039%=      5-min Rain = 0
KAHS 210201Z 15006KT 32/16 A3001 RMK A01 T03200161  RH  038%=      5-min Rain = 0
KAHS 210202Z 15006KT 32/16 A3001 RMK A01 T03190160  RH  038%=      5-min Rain = 0
KAHS 210203Z 15006KT 32/16 A3001 RMK A01 T03190161  RH  039%=      5-min Rain = 0
KAHS 210204Z 14006KT 32/16 A3001 RMK A01 T03180162  RH  039%=      5-min Rain = 0
KAHS 210205Z 14006KT 32/16 A3001 RMK A01 T03180162  RH  039%=      5-min Rain = 0
KAHS 210206Z 15006KT 32/16 A3001 RMK A01 T03170162  RH  039%=      5-min Rain = 0
KAHS 210207Z 15006KT 32/16 A3001 RMK A01 T03170162  RH  039%=      5-min Rain = 0
KAHS 210208Z 15006KT 32/16 A3001 RMK A01 T03170163  RH  040%=      5-min Rain = 0
KAHS 210209Z 15006KT 32/16 A3001 RMK A01 T03170163  RH  040%=      5-min Rain = 0
KAHS 210210Z 14006KT 32/16 A3001 RMK A01 T03170163  RH  040%=      5-min Rain = 0
KAHS 210211Z 14006KT 32/16 A3001 RMK A01 T03160161  RH  039%=      5-min Rain = 0
KAHS 210212Z 14006KT 32/16 A3001 RMK A01 T03160161  RH  039%=      5-min Rain = 0
KAHS 210213Z 14006KT 32/16 A3001 RMK A01 T03160160  RH  039%=      5-min Rain = 0
KAHS 210214Z 14005KT 32/16 A3001 RMK A01 T03160158  RH  039%=      5-min Rain = 0
KAHS 210215Z 14005KT 32/16 A3001 RMK A01 T03170158  RH  038%=      5-min Rain = 0
KAHS 210216Z 14005KT 32/16 A3001 RMK A01 T03170157  RH  038%=      5-min Rain = 0
KAHS 210217Z 13004KT 32/16 A3001 RMK A01 T03170157  RH  038%=      5-min Rain = 0
KAHS 210218Z 13004KT 32/16 A3001 RMK A01 T03160158  RH  038%=      5-min Rain = 0
KAHS 210219Z 14005KT 32/16 A3001 RMK A01 T03150157  RH  038%=      5-min Rain = 0
KAHS 210220Z 14004KT 32/16 A3001 RMK A01 T03150156  RH  038%=      5-min Rain = 0
KAHS 210221Z 14004KT 32/16 A3001 RMK A01 T03160156  RH  038%=      5-min Rain = 0
KAHS 210222Z 14004KT 32/16 A3001 RMK A01 T03160155  RH  038%=      5-min Rain = 0
KAHS 210223Z 14005KT 32/16 A3001 RMK A01 T03150155  RH  038%=      5-min Rain = 0
KAHS 210224Z 14005KT 32/16 A3001 RMK A01 T03150156  RH  038%=      5-min Rain = 0
KAHS 210225Z 14005KT 31/16 A3001 RMK A01 T03140156  RH  039%=      5-min Rain = 0
KAHS 210226Z 14005KT 31/16 A3001 RMK A01 T03140157  RH  039%=      5-min Rain = 0
KAHS 210227Z 14006KT 31/16 A3001 RMK A01 T03130157  RH  039%=      5-min Rain = 0
KAHS 210228Z 14006KT 31/16 A3001 RMK A01 T03120157  RH  039%=      5-min Rain = 0
KAHS 210229Z 14006KT 31/16 A3001 RMK A01 T03120158  RH  039%=      5-min Rain = 0
KAHS 210230Z 15006KT 31/16 A3001 RMK A01 T03110159  RH  040%=      5-min Rain = 0
KAHS 210231Z 15006KT 31/16 A3001 RMK A01 T03110160  RH  040%=      5-min Rain = 0
KAHS 210232Z 15006KT 31/16 A3001 RMK A01 T03110161  RH  040%=      5-min Rain = 0
KAHS 210233Z 14006KT 31/16 A3001 RMK A01 T03100161  RH  041%=      5-min Rain = 0
KAHS 210234Z 14006KT 31/16 A3001 RMK A01 T03100162  RH  041%=      5-min Rain = 0
KAHS 210235Z 14005KT 31/16 A3001 RMK A01 T03090163  RH  041%=      5-min Rain = 0
KAHS 210236Z 14006KT 31/16 A3002 RMK A01 T03090164  RH  042%=      5-min Rain = 0
KAHS 210237Z 14005KT 31/17 A3002 RMK A01 T03090165  RH  042%=      5-min Rain = 0
KAHS 210238Z 14005KT 31/17 A3002 RMK A01 T03080166  RH  042%=      5-min Rain = 0
KAHS 210239Z 14006KT 31/17 A3002 RMK A01 T03080167  RH  043%=      5-min Rain = 0
KAHS 210240Z 14005KT 31/17 A3002 RMK A01 T03070168  RH  043%=      5-min Rain = 0
KAHS 210241Z 14005KT 31/17 A3002 RMK A01 T03070167  RH  043%=      5-min Rain = 0
KAHS 210242Z 14005KT 31/17 A3002 RMK A01 T03070166  RH  043%=      5-min Rain = 0
KAHS 210243Z 13004KT 31/17 A3002 RMK A01 T03070165  RH  043%=      5-min Rain = 0
KAHS 210244Z 13004KT 31/17 A3002 RMK A01 T03060165  RH  042%=      5-min Rain = 0
KAHS 210245Z 12003KT 31/16 A3002 RMK A01 T03060164  RH  042%=      5-min Rain = 0
KAHS 210246Z 12003KT 31/16 A3002 RMK A01 T03050163  RH  042%=      5-min Rain = 0
KAHS 210247Z 12003KT 31/16 A3002 RMK A01 T03050162  RH  042%=      5-min Rain = 0
KAHS 210248Z 13004KT 31/16 A3002 RMK A01 T03050161  RH  042%=      5-min Rain = 0
KAHS 210249Z 13004KT 31/16 A3002 RMK A01 T03050160  RH  042%=      5-min Rain = 0
KAHS 210250Z 13004KT 31/16 A3002 RMK A01 T03050160  RH  041%=      5-min Rain = 0
KAHS 210251Z 13004KT 31/16 A3003 RMK A01 T03060160  RH  042%=      5-min Rain = 0
KAHS 210252Z 14004KT 31/16 A3003 RMK A01 T03050161  RH  042%=      5-min Rain = 0
KAHS 210253Z 14004KT 31/16 A3003 RMK A01 T03060160  RH  041%=      5-min Rain = 0
KAHS 210254Z 14004KT 31/16 A3003 RMK A01 T03060161  RH  041%=      5-min Rain = 0
KAHS 210255Z 14004KT 31/16 A3003 RMK A01 T03060161  RH  042%=      5-min Rain = 0
KAHS 210256Z 14004KT 31/16 A3003 RMK A01 T03060161  RH  042%=      5-min Rain = 0
KAHS 210257Z 14004KT 31/16 A3003 RMK A01 T03060161  RH  042%=      5-min Rain = 0
KAHS 210258Z 13004KT 31/16 A3003 RMK A01 T03060161  RH  042%=      5-min Rain = 0
KAHS 210259Z 13004KT 31/16 A3003 RMK A01 T03060160  RH  041%=      5-min Rain = 0
KAHS 210300Z 14004KT 31/16 A3003 RMK A01 T03050161  RH  042%=      5-min Rain = 0
KAHS 210301Z 14004KT 31/16 A3003 RMK A01 T03050160  RH  042%=      5-min Rain = 0
KAHS 210302Z 15004KT 30/16 A3003 RMK A01 T03040161  RH  042%=      5-min Rain = 0
KAHS 210303Z 15004KT 30/16 A3003 RMK A01 T03040161  RH  042%=      5-min Rain = 0
KAHS 210304Z 15003KT 30/16 A3003 RMK A01 T03030162  RH  043%=      5-min Rain = 0
KAHS 210305Z 15003KT 30/17 A3003 RMK A01 T03020165  RH  044%=      5-min Rain = 0
KAHS 210306Z 15004KT 30/17 A3003 RMK A01 T03000167  RH  045%=      5-min Rain = 0
KAHS 210307Z 15004KT 30/17 A3003 RMK A01 T03000168  RH  045%=      5-min Rain = 0
KAHS 210308Z 16004KT 30/17 A3003 RMK A01 T02990169  RH  046%=      5-min Rain = 0
KAHS 210309Z 15004KT 30/17 A3003 RMK A01 T02980172  RH  047%=      5-min Rain = 0
KAHS 210310Z 16004KT 30/17 A3003 RMK A01 T02970171  RH  047%=      5-min Rain = 0
KAHS 210311Z 16005KT 30/17 A3003 RMK A01 T02970172  RH  047%=      5-min Rain = 0
KAHS 210312Z 16004KT 30/17 A3003 RMK A01 T02960171  RH  047%=      5-min Rain = 0
KAHS 210313Z 16005KT 30/17 A3003 RMK A01 T02970171  RH  047%=      5-min Rain = 0
KAHS 210314Z 15005KT 30/17 A3004 RMK A01 T02970170  RH  047%=      5-min Rain = 0
KAHS 210315Z 15005KT 30/17 A3004 RMK A01 T02970170  RH  046%=      5-min Rain = 0
KAHS 210316Z 15005KT 30/17 A3004 RMK A01 T02970168  RH  046%=      5-min Rain = 0
KAHS 210317Z 15005KT 30/17 A3004 RMK A01 T02980168  RH  046%=      5-min Rain = 0
KAHS 210318Z 15005KT 30/17 A3004 RMK A01 T02980167  RH  045%=      5-min Rain = 0
KAHS 210319Z 15005KT 30/17 A3004 RMK A01 T02990166  RH  045%=      5-min Rain = 0
KAHS 210320Z 15004KT 30/17 A3004 RMK A01 T02990167  RH  045%=      5-min Rain = 0
KAHS 210321Z 15004KT 30/17 A3004 RMK A01 T02990166  RH  045%=      5-min Rain = 0
KAHS 210322Z 15005KT 30/17 A3004 RMK A01 T02990167  RH  045%=      5-min Rain = 0
KAHS 210323Z 15005KT 30/17 A3004 RMK A01 T02990166  RH  045%=      5-min Rain = 0
KAHS 210324Z 15005KT 30/17 A3004 RMK A01 T02990167  RH  045%=      5-min Rain = 0
KAHS 210325Z 15005KT 30/17 A3004 RMK A01 T02990167  RH  045%=      5-min Rain = 0
KAHS 210326Z 16004KT 30/17 A3004 RMK A01 T02990166  RH  045%=      5-min Rain = 0
KAHS 210327Z 16005KT 30/17 A3004 RMK A01 T02990166  RH  045%=      5-min Rain = 0
KAHS 210328Z 16005KT 30/17 A3003 RMK A01 T02980166  RH  045%=      5-min Rain = 0
KAHS 210329Z 16004KT 30/17 A3003 RMK A01 T02980165  RH  045%=      5-min Rain = 0
KAHS 210330Z 15005KT 30/17 A3003 RMK A01 T02970165  RH  045%=      5-min Rain = 0
KAHS 210331Z 15005KT 30/16 A3003 RMK A01 T02970164  RH  045%=      5-min Rain = 0
KAHS 210332Z 15005KT 30/16 A3003 RMK A01 T02970163  RH  045%=      5-min Rain = 0
KAHS 210333Z 15005KT 30/16 A3004 RMK A01 T02970164  RH  045%=      5-min Rain = 0
KAHS 210334Z 16004KT 30/17 A3004 RMK A01 T02960165  RH  045%=      5-min Rain = 0
KAHS 210335Z 17003KT 30/17 A3004 RMK A01 T02960165  RH  045%=      5-min Rain = 0
KAHS 210336Z 17003KT 30/16 A3004 RMK A01 T02950164  RH  045%=      5-min Rain = 0
KAHS 210337Z 18003KT 29/16 A3004 RMK A01 T02930162  RH  045%=      5-min Rain = 0
KAHS 210338Z 18002KT 29/16 A3004 RMK A01 T02920162  RH  045%=      5-min Rain = 0
KAHS 210339Z 17002KT 29/16 A3004 RMK A01 T02910163  RH  046%=      5-min Rain = 0
KAHS 210340Z 17002KT 29/16 A3004 RMK A01 T02900162  RH  046%=      5-min Rain = 0
KAHS 210341Z 16002KT 29/16 A3004 RMK A01 T02890162  RH  046%=      5-min Rain = 0
KAHS 210342Z 15002KT 29/16 A3004 RMK A01 T02890162  RH  046%=      5-min Rain = 0
KAHS 210343Z 14003KT 29/16 A3004 RMK A01 T02890159  RH  045%=      5-min Rain = 0
KAHS 210344Z 14003KT 29/16 A3004 RMK A01 T02890160  RH  046%=      5-min Rain = 0
KAHS 210345Z 13003KT 29/16 A3004 RMK A01 T02890161  RH  046%=      5-min Rain = 0
KAHS 210346Z 14003KT 29/16 A3004 RMK A01 T02890161  RH  046%=      5-min Rain = 0
KAHS 210347Z 13003KT 29/16 A3004 RMK A01 T02890163  RH  046%=      5-min Rain = 0
KAHS 210348Z 14004KT 29/17 A3004 RMK A01 T02890166  RH  047%=      5-min Rain = 0
KAHS 210349Z 14004KT 29/17 A3004 RMK A01 T02890166  RH  047%=      5-min Rain = 0
KAHS 210350Z 14004KT 29/17 A3004 RMK A01 T02890165  RH  047%=      5-min Rain = 0
KAHS 210351Z 14004KT 29/17 A3004 RMK A01 T02890165  RH  047%=      5-min Rain = 0
KAHS 210352Z 15004KT 29/16 A3004 RMK A01 T02890164  RH  047%=      5-min Rain = 0
KAHS 210353Z 15004KT 29/17 A3004 RMK A01 T02890165  RH  047%=      5-min Rain = 0
KAHS 210354Z 15005KT 29/17 A3004 RMK A01 T02900166  RH  047%=      5-min Rain = 0
KAHS 210355Z 15004KT 29/17 A3004 RMK A01 T02900166  RH  047%=      5-min Rain = 0
KAHS 210356Z 15004KT 29/17 A3004 RMK A01 T02900166  RH  047%=      5-min Rain = 0
KAHS 210357Z 15004KT 29/17 A3004 RMK A01 T02900167  RH  047%=      5-min Rain = 0
KAHS 210358Z 15004KT 29/17 A3004 RMK A01 T02900167  RH  047%=      5-min Rain = 0
KAHS 210359Z 15004KT 29/17 A3004 RMK A01 T02900167  RH  047%=      5-min Rain = 0
KAHS 210400Z 15004KT 29/17 A3004 RMK A01 T02900167  RH  047%=      5-min Rain = 0
KAHS 210401Z 15003KT 29/17 A3004 RMK A01 T02900167  RH  048%=      5-min Rain = 0
KAHS 210402Z 15003KT 29/17 A3004 RMK A01 T02890167  RH  048%=      5-min Rain = 0
KAHS 210403Z 15003KT 29/17 A3004 RMK A01 T02890167  RH  048%=      5-min Rain = 0
KAHS 210404Z 15003KT 29/17 A3004 RMK A01 T02890167  RH  048%=      5-min Rain = 0
KAHS 210405Z 15003KT 29/17 A3004 RMK A01 T02880167  RH  048%=      5-min Rain = 0
KAHS 210406Z 15004KT 29/17 A3004 RMK A01 T02880165  RH  047%=      5-min Rain = 0
KAHS 210407Z 15004KT 29/17 A3004 RMK A01 T02880165  RH  047%=      5-min Rain = 0
KAHS 210408Z 15004KT 29/17 A3004 RMK A01 T02880165  RH  047%=      5-min Rain = 0
KAHS 210409Z 15004KT 29/17 A3004 RMK A01 T02880165  RH  047%=      5-min Rain = 0
KAHS 210410Z 14003KT 29/16 A3004 RMK A01 T02880164  RH  047%=      5-min Rain = 0
KAHS 210411Z 15004KT 29/16 A3004 RMK A01 T02890163  RH  047%=      5-min Rain = 0
KAHS 210412Z 14003KT 29/16 A3004 RMK A01 T02890163  RH  046%=      5-min Rain = 0
KAHS 210413Z 14003KT 29/16 A3004 RMK A01 T02890163  RH  046%=      5-min Rain = 0
KAHS 210414Z 14003KT 29/16 A3004 RMK A01 T02890163  RH  046%=      5-min Rain = 0
KAHS 210415Z 13002KT 29/16 A3004 RMK A01 T02890163  RH  046%=      5-min Rain = 0
KAHS 210416Z 13002KT 29/17 A3004 RMK A01 T02890168  RH  048%=      5-min Rain = 0
KAHS 210417Z 13002KT 29/17 A3004 RMK A01 T02880171  RH  049%=      5-min Rain = 0
KAHS 210418Z 13002KT 29/17 A3004 RMK A01 T02850173  RH  051%=      5-min Rain = 0
KAHS 210419Z 13001KT 28/17 A3004 RMK A01 T02810170  RH  051%=      5-min Rain = 0
KAHS 210420Z 13002KT 28/17 A3004 RMK A01 T02800168  RH  051%=      5-min Rain = 0
KAHS 210421Z 13002KT 28/17 A3004 RMK A01 T02790167  RH  050%=      5-min Rain = 0
KAHS 210422Z 13002KT 28/17 A3004 RMK A01 T02790165  RH  050%=      5-min Rain = 0
KAHS 210423Z 13002KT 28/16 A3004 RMK A01 T02790164  RH  050%=      5-min Rain = 0
KAHS 210424Z 13002KT 28/16 A3004 RMK A01 T02800164  RH  049%=      5-min Rain = 0
KAHS 210425Z 13002KT 28/16 A3004 RMK A01 T02800163  RH  049%=      5-min Rain = 0
KAHS 210426Z 13002KT 28/16 A3004 RMK A01 T02800163  RH  049%=      5-min Rain = 0
KAHS 210427Z 13002KT 28/16 A3004 RMK A01 T02800162  RH  049%=      5-min Rain = 0
KAHS 210428Z 13002KT 28/16 A3004 RMK A01 T02790162  RH  049%=      5-min Rain = 0
KAHS 210429Z 14002KT 28/16 A3004 RMK A01 T02790162  RH  049%=      5-min Rain = 0
KAHS 210430Z 14002KT 28/16 A3004 RMK A01 T02790162  RH  049%=      5-min Rain = 0
KAHS 210431Z 14002KT 28/16 A3004 RMK A01 T02790162  RH  049%=      5-min Rain = 0
KAHS 210432Z 14002KT 28/16 A3004 RMK A01 T02800162  RH  049%=      5-min Rain = 0
KAHS 210433Z 14002KT 28/16 A3004 RMK A01 T02800162  RH  049%=      5-min Rain = 0
KAHS 210434Z 14003KT 28/16 A3004 RMK A01 T02790162  RH  049%=      5-min Rain = 0
KAHS 210435Z 13003KT 28/16 A3004 RMK A01 T02790162  RH  049%=      5-min Rain = 0
KAHS 210436Z 13003KT 28/16 A3004 RMK A01 T02800164  RH  049%=      5-min Rain = 0
KAHS 210437Z 14003KT 28/17 A3004 RMK A01 T02800165  RH  049%=      5-min Rain = 0
KAHS 210438Z 14003KT 28/17 A3004 RMK A01 T02800166  RH  050%=      5-min Rain = 0
KAHS 210439Z 14003KT 28/17 A3004 RMK A01 T02800166  RH  050%=      5-min Rain = 0
KAHS 210440Z 14003KT 28/17 A3004 RMK A01 T02790166  RH  050%=      5-min Rain = 0
KAHS 210441Z 14003KT 28/17 A3004 RMK A01 T02790167  RH  051%=      5-min Rain = 0
KAHS 210442Z 15003KT 28/17 A3004 RMK A01 T02790168  RH  051%=      5-min Rain = 0
KAHS 210443Z 15003KT 28/17 A3004 RMK A01 T02780168  RH  051%=      5-min Rain = 0
KAHS 210444Z 15003KT 28/17 A3004 RMK A01 T02770166  RH  051%=      5-min Rain = 0
KAHS 210445Z 15003KT 28/17 A3004 RMK A01 T02770167  RH  051%=      5-min Rain = 0
KAHS 210446Z 15003KT 28/17 A3004 RMK A01 T02760167  RH  051%=      5-min Rain = 0
KAHS 210447Z 15003KT 28/17 A3004 RMK A01 T02760168  RH  052%=      5-min Rain = 0
KAHS 210448Z 15003KT 28/17 A3004 RMK A01 T02760167  RH  052%=      5-min Rain = 0
KAHS 210449Z 15003KT 28/17 A3004 RMK A01 T02750167  RH  051%=      5-min Rain = 0
KAHS 210450Z 15003KT 28/17 A3004 RMK A01 T02750167  RH  051%=      5-min Rain = 0
KAHS 210451Z 15003KT 28/17 A3004 RMK A01 T02760167  RH  051%=      5-min Rain = 0
KAHS 210452Z 15003KT 28/17 A3004 RMK A01 T02750166  RH  051%=      5-min Rain = 0
KAHS 210453Z 14003KT 28/17 A3004 RMK A01 T02750166  RH  051%=      5-min Rain = 0
KAHS 210454Z 15003KT 28/17 A3004 RMK A01 T02750167  RH  051%=      5-min Rain = 0
KAHS 210455Z 15003KT 28/17 A3004 RMK A01 T02750166  RH  051%=      5-min Rain = 0
KAHS 210456Z 15003KT 28/17 A3004 RMK A01 T02760167  RH  051%=      5-min Rain = 0
KAHS 210457Z 14003KT 28/17 A3004 RMK A01 T02760166  RH  051%=      5-min Rain = 0
KAHS 210458Z 15003KT 28/17 A3004 RMK A01 T02760166  RH  051%=      5-min Rain = 0
KAHS 210459Z 14003KT 28/17 A3004 RMK A01 T02760168  RH  052%=      5-min Rain = 0

Page generated in 0.1284 seconds.